Observation data for Smyer on 06/24/2019      Previous  Date  Next       Current Mesonet Observations  Soil Data  Daily Summary Page  Observations in Plain Language
KSM2 240500Z 30006KT 21/04 A2992 RMK A01 T02070042  RH  034%=      5-min Rain = 0
KSM2 240501Z 29006KT 21/04 A2992 RMK A01 T02070041  RH  034%=      5-min Rain = 0
KSM2 240502Z 29006KT 21/04 A2992 RMK A01 T02080041  RH  033%=      5-min Rain = 0
KSM2 240503Z 30006KT 21/04 A2992 RMK A01 T02080041  RH  033%=      5-min Rain = 0
KSM2 240504Z 30006KT 21/04 A2992 RMK A01 T02080041  RH  033%=      5-min Rain = 0
KSM2 240505Z 30005KT 21/04 A2992 RMK A01 T02080041  RH  033%=      5-min Rain = 0
KSM2 240506Z 30005KT 21/04 A2992 RMK A01 T02070042  RH  034%=      5-min Rain = 0
KSM2 240507Z 30005KT 21/04 A2992 RMK A01 T02070042  RH  034%=      5-min Rain = 0
KSM2 240508Z 30005KT 21/04 A2992 RMK A01 T02060043  RH  034%=      5-min Rain = 0
KSM2 240509Z 30005KT 21/04 A2992 RMK A01 T02060043  RH  034%=      5-min Rain = 0
KSM2 240510Z 30005KT 21/04 A2992 RMK A01 T02050044  RH  035%=      5-min Rain = 0
KSM2 240511Z 30005KT 21/04 A2992 RMK A01 T02050044  RH  035%=      5-min Rain = 0
KSM2 240512Z 31004KT 20/05 A2993 RMK A01 T02040045  RH  035%=      5-min Rain = 0
KSM2 240513Z 32004KT 20/05 A2993 RMK A01 T02030045  RH  035%=      5-min Rain = 0
KSM2 240514Z 32005KT 20/04 A2993 RMK A01 T02030044  RH  035%=      5-min Rain = 0
KSM2 240515Z 32004KT 20/04 A2993 RMK A01 T02040044  RH  035%=      5-min Rain = 0
KSM2 240516Z 33004KT 20/04 A2993 RMK A01 T02040044  RH  035%=      5-min Rain = 0
KSM2 240517Z 34004KT 20/04 A2993 RMK A01 T02040044  RH  035%=      5-min Rain = 0
KSM2 240518Z 35004KT 21/05 A2993 RMK A01 T02050045  RH  035%=      5-min Rain = 0
KSM2 240519Z 35005KT 20/05 A2993 RMK A01 T02030047  RH  036%=      5-min Rain = 0
KSM2 240520Z 34005KT 20/05 A2993 RMK A01 T02020046  RH  036%=      5-min Rain = 0
KSM2 240521Z 33005KT 20/04 A2993 RMK A01 T02000044  RH  036%=      5-min Rain = 0
KSM2 240522Z 34005KT 20/04 A2993 RMK A01 T01990044  RH  036%=      5-min Rain = 0
KSM2 240523Z 34006KT 20/05 A2993 RMK A01 T01970046  RH  037%=      5-min Rain = 0
KSM2 240524Z 33005KT 20/05 A2993 RMK A01 T01960045  RH  037%=      5-min Rain = 0
KSM2 240525Z 34006KT 20/04 A2993 RMK A01 T01950044  RH  037%=      5-min Rain = 0
KSM2 240526Z 33006KT 19/04 A2993 RMK A01 T01940044  RH  037%=      5-min Rain = 0
KSM2 240527Z 35006KT 19/05 A2993 RMK A01 T01930045  RH  038%=      5-min Rain = 0
KSM2 240528Z 35005KT 19/05 A2993 RMK A01 T01910047  RH  039%=      5-min Rain = 0
KSM2 240529Z 34005KT 19/05 A2993 RMK A01 T01880050  RH  040%=      5-min Rain = 0
KSM2 240530Z 34005KT 19/05 A2993 RMK A01 T01850052  RH  042%=      5-min Rain = 0
KSM2 240531Z 34005KT 18/05 A2993 RMK A01 T01820054  RH  043%=      5-min Rain = 0
KSM2 240532Z 34005KT 18/05 A2993 RMK A01 T01790053  RH  044%=      5-min Rain = 0
KSM2 240533Z 34007KT 18/05 A2993 RMK A01 T01770053  RH  044%=      5-min Rain = 0
KSM2 240534Z 34007KT 18/05 A2993 RMK A01 T01760053  RH  044%=      5-min Rain = 0
KSM2 240535Z 34006KT 18/05 A2993 RMK A01 T01760051  RH  044%=      5-min Rain = 0
KSM2 240536Z 34007KT 18/05 A2993 RMK A01 T01760050  RH  043%=      5-min Rain = 0
KSM2 240537Z 33007KT 18/05 A2993 RMK A01 T01770049  RH  043%=      5-min Rain = 0
KSM2 240538Z 33007KT 18/05 A2993 RMK A01 T01780050  RH  043%=      5-min Rain = 0
KSM2 240539Z 34007KT 18/05 A2993 RMK A01 T01780050  RH  043%=      5-min Rain = 0
KSM2 240540Z 34007KT 18/05 A2993 RMK A01 T01780049  RH  043%=      5-min Rain = 0
KSM2 240541Z 34007KT 18/05 A2993 RMK A01 T01780049  RH  042%=      5-min Rain = 0
KSM2 240542Z 34008KT 18/05 A2993 RMK A01 T01780047  RH  042%=      5-min Rain = 0
KSM2 240543Z 34007KT 18/05 A2993 RMK A01 T01790047  RH  042%=      5-min Rain = 0
KSM2 240544Z 34007KT 18/05 A2993 RMK A01 T01800046  RH  041%=      5-min Rain = 0
KSM2 240545Z 34008KT 18/05 A2993 RMK A01 T01810045  RH  041%=      5-min Rain = 0
KSM2 240546Z 34008KT 18/05 A2993 RMK A01 T01820045  RH  040%=      5-min Rain = 0
KSM2 240547Z 34007KT 18/05 A2993 RMK A01 T01830045  RH  040%=      5-min Rain = 0
KSM2 240548Z 34007KT 18/05 A2993 RMK A01 T01830045  RH  040%=      5-min Rain = 0
KSM2 240549Z 34007KT 18/05 A2993 RMK A01 T01830045  RH  040%=      5-min Rain = 0
KSM2 240550Z 34007KT 18/05 A2993 RMK A01 T01830047  RH  041%=      5-min Rain = 0
KSM2 240551Z 34007KT 18/05 A2993 RMK A01 T01820045  RH  040%=      5-min Rain = 0
KSM2 240552Z 34006KT 18/04 A2993 RMK A01 T01820043  RH  040%=      5-min Rain = 0
KSM2 240553Z 34005KT 18/04 A2993 RMK A01 T01820044  RH  040%=      5-min Rain = 0
KSM2 240554Z 34005KT 18/05 A2993 RMK A01 T01830045  RH  040%=      5-min Rain = 0
KSM2 240555Z 33004KT 18/05 A2993 RMK A01 T01830046  RH  040%=      5-min Rain = 0
KSM2 240556Z 33004KT 18/05 A2993 RMK A01 T01820045  RH  040%=      5-min Rain = 0
KSM2 240557Z 33003KT 18/05 A2993 RMK A01 T01820045  RH  040%=      5-min Rain = 0
KSM2 240558Z 31001KT 18/05 A2993 RMK A01 T01810047  RH  041%=      5-min Rain = 0
KSM2 240559Z 30001KT 18/05 A2993 RMK A01 T01790049  RH  042%=      5-min Rain = 0
KSM2 240600Z 25001KT 18/05 A2993 RMK A01 T01780048  RH  042%=      5-min Rain = 0
KSM2 240601Z 21002KT 18/05 A2993 RMK A01 T01780048  RH  042%=      5-min Rain = 0
KSM2 240602Z 23002KT 18/05 A2993 RMK A01 T01780050  RH  043%=      5-min Rain = 0
KSM2 240603Z 23001KT 18/05 A2993 RMK A01 T01770048  RH  042%=      5-min Rain = 0
KSM2 240604Z 24002KT 18/05 A2993 RMK A01 T01790046  RH  041%=      5-min Rain = 0
KSM2 240605Z 23002KT 18/04 A2993 RMK A01 T01820044  RH  040%=      5-min Rain = 0
KSM2 240606Z 25003KT 19/04 A2993 RMK A01 T01850043  RH  039%=      5-min Rain = 0
KSM2 240607Z 30003KT 19/04 A2993 RMK A01 T01880042  RH  038%=      5-min Rain = 0
KSM2 240608Z 30005KT 19/04 A2993 RMK A01 T01910035  RH  036%=      5-min Rain = 0
KSM2 240609Z 28003KT 20/03 A2993 RMK A01 T01980030  RH  033%=      5-min Rain = 0
KSM2 240610Z 29003KT 20/03 A2993 RMK A01 T02020028  RH  032%=      5-min Rain = 0
KSM2 240611Z 31004KT 21/02 A2993 RMK A01 T02070024  RH  030%=      5-min Rain = 0
KSM2 240612Z 31003KT 21/02 A2993 RMK A01 T02090024  RH  029%=      5-min Rain = 0
KSM2 240613Z 32004KT 21/02 A2993 RMK A01 T02110020  RH  028%=      5-min Rain = 0
KSM2 240614Z 31004KT 21/02 A2993 RMK A01 T02120016  RH  027%=      5-min Rain = 0
KSM2 240615Z 32006KT 22/01 A2993 RMK A01 T02160013  RH  026%=      5-min Rain = 0
KSM2 240616Z 31006KT 22/02 A2993 RMK A01 T02200015  RH  026%=      5-min Rain = 0
KSM2 240617Z 32006KT 22/02 A2993 RMK A01 T02230017  RH  026%=      5-min Rain = 0
KSM2 240618Z 33006KT 22/02 A2993 RMK A01 T02240016  RH  025%=      5-min Rain = 0
KSM2 240619Z 32004KT 22/02 A2993 RMK A01 T02240018  RH  026%=      5-min Rain = 0
KSM2 240620Z 05006KT 22/02 A2993 RMK A01 T02220021  RH  027%=      5-min Rain = 0
KSM2 240621Z 07008KT 22/03 A2994 RMK A01 T02170029  RH  029%=      5-min Rain = 0
KSM2 240622Z 08005KT 21/03 A2994 RMK A01 T02110034  RH  031%=      5-min Rain = 0
KSM2 240623Z 10004KT 21/03 A2993 RMK A01 T02090034  RH  032%=      5-min Rain = 0
KSM2 240624Z 12003KT 21/03 A2993 RMK A01 T02090028  RH  030%=      5-min Rain = 0
KSM2 240625Z 13002KT 21/03 A2993 RMK A01 T02110027  RH  030%=      5-min Rain = 0
KSM2 240626Z 12004KT 21/03 A2993 RMK A01 T02130026  RH  029%=      5-min Rain = 0
KSM2 240627Z 11003KT 22/02 A2993 RMK A01 T02160024  RH  028%=      5-min Rain = 0
KSM2 240628Z 09003KT 22/03 A2993 RMK A01 T02180025  RH  028%=      5-min Rain = 0
KSM2 240629Z 08002KT 22/03 A2993 RMK A01 T02180028  RH  029%=      5-min Rain = 0
KSM2 240630Z 08002KT 22/03 A2993 RMK A01 T02160029  RH  029%=      5-min Rain = 0
KSM2 240631Z 10003KT 22/03 A2993 RMK A01 T02150026  RH  029%=      5-min Rain = 0
KSM2 240632Z 08003KT 22/03 A2993 RMK A01 T02150028  RH  029%=      5-min Rain = 0
KSM2 240633Z 08004KT 21/03 A2993 RMK A01 T02140028  RH  029%=      5-min Rain = 0
KSM2 240634Z 08004KT 21/03 A2993 RMK A01 T02130029  RH  030%=      5-min Rain = 0
KSM2 240635Z 08004KT 21/03 A2992 RMK A01 T02120030  RH  030%=      5-min Rain = 0
KSM2 240636Z 08005KT 21/03 A2992 RMK A01 T02110026  RH  030%=      5-min Rain = 0
KSM2 240637Z 09004KT 21/03 A2992 RMK A01 T02100027  RH  030%=      5-min Rain = 0
KSM2 240638Z 09004KT 21/03 A2992 RMK A01 T02100029  RH  030%=      5-min Rain = 0
KSM2 240639Z 09004KT 21/03 A2992 RMK A01 T02090029  RH  031%=      5-min Rain = 0
KSM2 240640Z 09005KT 21/03 A2992 RMK A01 T02080031  RH  031%=      5-min Rain = 0
KSM2 240641Z 09005KT 21/03 A2992 RMK A01 T02070034  RH  032%=      5-min Rain = 0
KSM2 240642Z 09006KT 21/03 A2992 RMK A01 T02060034  RH  032%=      5-min Rain = 0
KSM2 240643Z 09006KT 20/04 A2992 RMK A01 T02040035  RH  033%=      5-min Rain = 0
KSM2 240644Z 09006KT 20/04 A2993 RMK A01 T02020035  RH  033%=      5-min Rain = 0
KSM2 240645Z 10007KT 20/04 A2993 RMK A01 T02010036  RH  034%=      5-min Rain = 0
KSM2 240646Z 11007KT 20/04 A2993 RMK A01 T01990041  RH  035%=      5-min Rain = 0
KSM2 240647Z 11008KT 20/05 A2993 RMK A01 T01970045  RH  037%=      5-min Rain = 0
KSM2 240648Z 11007KT 20/05 A2993 RMK A01 T01960046  RH  037%=      5-min Rain = 0
KSM2 240649Z 12006KT 20/05 A2993 RMK A01 T01960046  RH  037%=      5-min Rain = 0
KSM2 240650Z 12006KT 20/05 A2993 RMK A01 T01970046  RH  037%=      5-min Rain = 0
KSM2 240651Z 12006KT 20/05 A2993 RMK A01 T01970047  RH  037%=      5-min Rain = 0
KSM2 240652Z 12006KT 20/05 A2993 RMK A01 T01980050  RH  038%=      5-min Rain = 0
KSM2 240653Z 12006KT 20/06 A2993 RMK A01 T01970058  RH  040%=      5-min Rain = 0
KSM2 240654Z 12007KT 20/07 A2993 RMK A01 T01990070  RH  043%=      5-min Rain = 0
KSM2 240655Z 12006KT 20/08 A2993 RMK A01 T02000078  RH  045%=      5-min Rain = 0
KSM2 240656Z 12005KT 20/08 A2993 RMK A01 T02000081  RH  046%=      5-min Rain = 0
KSM2 240657Z 12006KT 20/08 A2993 RMK A01 T02010082  RH  046%=      5-min Rain = 0
KSM2 240658Z 10006KT 20/08 A2993 RMK A01 T02010084  RH  047%=      5-min Rain = 0
KSM2 240659Z 09005KT 20/08 A2993 RMK A01 T02010083  RH  047%=      5-min Rain = 0
KSM2 240700Z 08006KT 20/08 A2993 RMK A01 T01990075  RH  045%=      5-min Rain = 0
KSM2 240701Z 09007KT 20/08 A2993 RMK A01 T01960075  RH  045%=      5-min Rain = 0
KSM2 240702Z 09006KT 20/09 A2993 RMK A01 T01950088  RH  050%=      5-min Rain = 0
KSM2 240703Z 07007KT 19/09 A2993 RMK A01 T01940086  RH  050%=      5-min Rain = 0
KSM2 240704Z 08008KT 19/08 A2993 RMK A01 T01940083  RH  049%=      5-min Rain = 0
KSM2 240705Z 08008KT 19/08 A2993 RMK A01 T01930083  RH  049%=      5-min Rain = 0
KSM2 240706Z 09008KT 19/08 A2993 RMK A01 T01920083  RH  049%=      5-min Rain = 0
KSM2 240707Z 09008KT 19/09 A2993 RMK A01 T01910094  RH  053%=      5-min Rain = 0
KSM2 240708Z 09007KT 19/10 A2993 RMK A01 T01920098  RH  054%=      5-min Rain = 0
KSM2 240709Z 09007KT 19/10 A2993 RMK A01 T01920098  RH  054%=      5-min Rain = 0
KSM2 240710Z 09007KT 19/10 A2993 RMK A01 T01910097  RH  054%=      5-min Rain = 0
KSM2 240711Z 10008KT 19/10 A2993 RMK A01 T01900097  RH  055%=      5-min Rain = 0
KSM2 240712Z 09007KT 19/10 A2993 RMK A01 T01900099  RH  055%=      5-min Rain = 0
KSM2 240713Z 08007KT 19/10 A2993 RMK A01 T01900101  RH  056%=      5-min Rain = 0
KSM2 240714Z 08007KT 19/10 A2993 RMK A01 T01890102  RH  057%=      5-min Rain = 0
KSM2 240715Z 07006KT 19/10 A2993 RMK A01 T01900101  RH  056%=      5-min Rain = 0
KSM2 240716Z 07005KT 19/10 A2993 RMK A01 T01900099  RH  056%=      5-min Rain = 0
KSM2 240717Z 06005KT 19/10 A2993 RMK A01 T01900098  RH  055%=      5-min Rain = 0
KSM2 240718Z 06005KT 19/10 A2993 RMK A01 T01900101  RH  056%=      5-min Rain = 0
KSM2 240719Z 06005KT 19/10 A2993 RMK A01 T01890103  RH  057%=      5-min Rain = 0
KSM2 240720Z 05005KT 19/11 A2993 RMK A01 T01890105  RH  058%=      5-min Rain = 0
KSM2 240721Z 06006KT 19/11 A2993 RMK A01 T01880108  RH  059%=      5-min Rain = 0
KSM2 240722Z 06006KT 19/11 A2993 RMK A01 T01880109  RH  060%=      5-min Rain = 0
KSM2 240723Z 06006KT 19/11 A2993 RMK A01 T01880110  RH  061%=      5-min Rain = 0
KSM2 240724Z 06006KT 19/11 A2994 RMK A01 T01870112  RH  062%=      5-min Rain = 0
KSM2 240725Z 07007KT 19/11 A2994 RMK A01 T01870113  RH  062%=      5-min Rain = 0
KSM2 240726Z 07007KT 19/11 A2994 RMK A01 T01860113  RH  062%=      5-min Rain = 0
KSM2 240727Z 08008KT 19/11 A2993 RMK A01 T01850112  RH  063%=      5-min Rain = 0
KSM2 240728Z 08008KT 18/11 A2993 RMK A01 T01830112  RH  063%=      5-min Rain = 0
KSM2 240729Z 08008KT 18/11 A2993 RMK A01 T01810111  RH  063%=      5-min Rain = 0
KSM2 240730Z 08007KT 18/11 A2993 RMK A01 T01800110  RH  064%=      5-min Rain = 0
KSM2 240731Z 08007KT 18/11 A2993 RMK A01 T01800110  RH  064%=      5-min Rain = 0
KSM2 240732Z 08007KT 18/11 A2993 RMK A01 T01790111  RH  064%=      5-min Rain = 0
KSM2 240733Z 08007KT 18/11 A2993 RMK A01 T01790111  RH  065%=      5-min Rain = 0
KSM2 240734Z 07007KT 18/11 A2993 RMK A01 T01790111  RH  065%=      5-min Rain = 0
KSM2 240735Z 07007KT 18/11 A2993 RMK A01 T01780111  RH  065%=      5-min Rain = 0
KSM2 240736Z 07007KT 18/11 A2993 RMK A01 T01780111  RH  065%=      5-min Rain = 0
KSM2 240737Z 07007KT 18/11 A2993 RMK A01 T01780112  RH  065%=      5-min Rain = 0
KSM2 240738Z 07006KT 18/11 A2993 RMK A01 T01780112  RH  065%=      5-min Rain = 0
KSM2 240739Z 06005KT 18/11 A2994 RMK A01 T01780112  RH  065%=      5-min Rain = 0
KSM2 240740Z 06006KT 18/11 A2994 RMK A01 T01790112  RH  065%=      5-min Rain = 0
KSM2 240741Z 06007KT 18/11 A2994 RMK A01 T01800112  RH  064%=      5-min Rain = 0
KSM2 240742Z 06007KT 18/11 A2994 RMK A01 T01800112  RH  065%=      5-min Rain = 0
KSM2 240743Z 07006KT 18/12 A2994 RMK A01 T01800115  RH  066%=      5-min Rain = 0
KSM2 240744Z 07006KT 18/12 A2994 RMK A01 T01800117  RH  067%=      5-min Rain = 0
KSM2 240745Z 07007KT 18/12 A2994 RMK A01 T01790118  RH  067%=      5-min Rain = 0
KSM2 240746Z 08007KT 18/12 A2994 RMK A01 T01780119  RH  068%=      5-min Rain = 0
KSM2 240747Z 08007KT 18/12 A2994 RMK A01 T01770119  RH  069%=      5-min Rain = 0
KSM2 240748Z 08007KT 18/12 A2994 RMK A01 T01760120  RH  069%=      5-min Rain = 0
KSM2 240749Z 08006KT 18/12 A2994 RMK A01 T01760120  RH  070%=      5-min Rain = 0
KSM2 240750Z 08006KT 18/12 A2994 RMK A01 T01760120  RH  070%=      5-min Rain = 0
KSM2 240751Z 08006KT 18/12 A2994 RMK A01 T01750119  RH  070%=      5-min Rain = 0
KSM2 240752Z 08006KT 17/12 A2994 RMK A01 T01740120  RH  071%=      5-min Rain = 0
KSM2 240753Z 08007KT 17/12 A2994 RMK A01 T01740121  RH  071%=      5-min Rain = 0
KSM2 240754Z 08006KT 17/12 A2994 RMK A01 T01730123  RH  072%=      5-min Rain = 0
KSM2 240755Z 08007KT 17/12 A2994 RMK A01 T01730124  RH  073%=      5-min Rain = 0
KSM2 240756Z 07005KT 17/13 A2994 RMK A01 T01730127  RH  074%=      5-min Rain = 0
KSM2 240757Z 07006KT 17/13 A2994 RMK A01 T01740129  RH  075%=      5-min Rain = 0
KSM2 240758Z 07007KT 18/13 A2994 RMK A01 T01750132  RH  076%=      5-min Rain = 0
KSM2 240759Z 08008KT 18/13 A2994 RMK A01 T01760134  RH  076%=      5-min Rain = 0
KSM2 240800Z 08007KT 18/14 A2995 RMK A01 T01760136  RH  077%=      5-min Rain = 0
KSM2 240801Z 08007KT 18/14 A2995 RMK A01 T01760138  RH  078%=      5-min Rain = 0
KSM2 240802Z 09007KT 18/14 A2995 RMK A01 T01770139  RH  078%=      5-min Rain = 0
KSM2 240803Z 10007KT 18/14 A2995 RMK A01 T01770139  RH  078%=      5-min Rain = 0
KSM2 240804Z 10007KT 18/14 A2995 RMK A01 T01780140  RH  078%=      5-min Rain = 0
KSM2 240805Z 10008KT 18/14 A2995 RMK A01 T01790144  RH  080%=      5-min Rain = 0
KSM2 240806Z 10008KT 18/15 A2995 RMK A01 T01810149  RH  082%=      5-min Rain = 0
KSM2 240807Z 09007KT 18/15 A2994 RMK A01 T01840153  RH  082%=      5-min Rain = 0
KSM2 240808Z 09009KT 19/15 A2994 RMK A01 T01860154  RH  082%=      5-min Rain = 0
KSM2 240809Z 09009KT 19/16 A2994 RMK A01 T01890156  RH  081%=      5-min Rain = 0
KSM2 240810Z 09010KT 19/16 A2995 RMK A01 T01910157  RH  080%=      5-min Rain = 0
KSM2 240811Z 09009KT 19/16 A2995 RMK A01 T01940158  RH  080%=      5-min Rain = 0
KSM2 240812Z 09009KT 20/16 A2995 RMK A01 T01950159  RH  079%=      5-min Rain = 0
KSM2 240813Z 09009KT 20/16 A2995 RMK A01 T01960159  RH  079%=      5-min Rain = 0
KSM2 240814Z 10010KT 20/16 A2994 RMK A01 T01970159  RH  079%=      5-min Rain = 0
KSM2 240815Z 09010KT 20/16 A2994 RMK A01 T01970158  RH  079%=      5-min Rain = 0
KSM2 240816Z 09009KT 20/16 A2995 RMK A01 T01970159  RH  079%=      5-min Rain = 0
KSM2 240817Z 09009KT 20/16 A2995 RMK A01 T01960159  RH  079%=      5-min Rain = 0
KSM2 240818Z 09010KT 20/16 A2995 RMK A01 T01960159  RH  079%=      5-min Rain = 0
KSM2 240819Z 09009KT 20/16 A2995 RMK A01 T01950159  RH  079%=      5-min Rain = 0
KSM2 240820Z 08008KT 20/16 A2995 RMK A01 T01950158  RH  079%=      5-min Rain = 0
KSM2 240821Z 08009KT 20/16 A2995 RMK A01 T01950159  RH  080%=      5-min Rain = 0
KSM2 240822Z 09009KT 20/16 A2995 RMK A01 T01950159  RH  080%=      5-min Rain = 0
KSM2 240823Z 09009KT 19/16 A2995 RMK A01 T01940159  RH  080%=      5-min Rain = 0
KSM2 240824Z 09010KT 19/16 A2995 RMK A01 T01940160  RH  081%=      5-min Rain = 0
KSM2 240825Z 09010KT 19/16 A2995 RMK A01 T01940160  RH  081%=      5-min Rain = 0
KSM2 240826Z 09009KT 19/16 A2995 RMK A01 T01940160  RH  081%=      5-min Rain = 0
KSM2 240827Z 09009KT 19/16 A2995 RMK A01 T01940160  RH  081%=      5-min Rain = 0
KSM2 240828Z 08009KT 19/16 A2995 RMK A01 T01940160  RH  081%=      5-min Rain = 0
KSM2 240829Z 08008KT 19/16 A2995 RMK A01 T01940161  RH  081%=      5-min Rain = 0
KSM2 240830Z 08009KT 19/16 A2995 RMK A01 T01940161  RH  081%=      5-min Rain = 0
KSM2 240831Z 08010KT 20/16 A2995 RMK A01 T01950162  RH  081%=      5-min Rain = 0
KSM2 240832Z 08009KT 20/16 A2995 RMK A01 T01950162  RH  081%=      5-min Rain = 0
KSM2 240833Z 08010KT 20/16 A2995 RMK A01 T01950162  RH  081%=      5-min Rain = 0
KSM2 240834Z 08009KT 20/16 A2995 RMK A01 T01950162  RH  081%=      5-min Rain = 0
KSM2 240835Z 08009KT 20/16 A2995 RMK A01 T01950163  RH  082%=      5-min Rain = 0
KSM2 240836Z 08008KT 20/16 A2995 RMK A01 T01950162  RH  081%=      5-min Rain = 0
KSM2 240837Z 08009KT 20/16 A2995 RMK A01 T01950162  RH  082%=      5-min Rain = 0
KSM2 240838Z 08009KT 20/16 A2995 RMK A01 T01950163  RH  082%=      5-min Rain = 0
KSM2 240839Z 08009KT 20/16 A2995 RMK A01 T01950163  RH  082%=      5-min Rain = 0
KSM2 240840Z 08010KT 20/16 A2995 RMK A01 T01950163  RH  082%=      5-min Rain = 0
KSM2 240841Z 09010KT 20/16 A2996 RMK A01 T01950163  RH  082%=      5-min Rain = 0
KSM2 240842Z 08010KT 20/16 A2996 RMK A01 T01950164  RH  082%=      5-min Rain = 0
KSM2 240843Z 08010KT 20/16 A2996 RMK A01 T01960164  RH  082%=      5-min Rain = 0
KSM2 240844Z 08010KT 20/17 A2996 RMK A01 T01960165  RH  082%=      5-min Rain = 0
KSM2 240845Z 08010KT 20/17 A2996 RMK A01 T01960165  RH  082%=      5-min Rain = 0
KSM2 240846Z 08009KT 20/17 A2996 RMK A01 T01960165  RH  082%=      5-min Rain = 0
KSM2 240847Z 08009KT 20/17 A2995 RMK A01 T01960165  RH  082%=      5-min Rain = 0
KSM2 240848Z 07007KT 20/17 A2995 RMK A01 T01960165  RH  082%=      5-min Rain = 0
KSM2 240849Z 08008KT 20/17 A2995 RMK A01 T01960165  RH  082%=      5-min Rain = 0
KSM2 240850Z 07008KT 20/17 A2995 RMK A01 T01950165  RH  083%=      5-min Rain = 0
KSM2 240851Z 06007KT 20/17 A2995 RMK A01 T01950165  RH  083%=      5-min Rain = 0
KSM2 240852Z 07005KT 19/16 A2995 RMK A01 T01940164  RH  083%=      5-min Rain = 0
KSM2 240853Z 07006KT 19/17 A2995 RMK A01 T01940165  RH  083%=      5-min Rain = 0
KSM2 240854Z 07006KT 19/16 A2995 RMK A01 T01930164  RH  083%=      5-min Rain = 0
KSM2 240855Z 07007KT 19/16 A2995 RMK A01 T01930164  RH  084%=      5-min Rain = 0
KSM2 240856Z 07006KT 19/16 A2996 RMK A01 T01920164  RH  084%=      5-min Rain = 0
KSM2 240857Z 07007KT 19/17 A2996 RMK A01 T01930165  RH  084%=      5-min Rain = 0
KSM2 240858Z 07007KT 19/16 A2996 RMK A01 T01920164  RH  084%=      5-min Rain = 0
KSM2 240859Z 07006KT 19/16 A2996 RMK A01 T01920164  RH  084%=      5-min Rain = 0
KSM2 240900Z 07007KT 19/16 A2996 RMK A01 T01920164  RH  084%=      5-min Rain = 0
KSM2 240901Z 06006KT 19/16 A2996 RMK A01 T01920164  RH  084%=      5-min Rain = 0
KSM2 240902Z 06007KT 19/16 A2996 RMK A01 T01910163  RH  084%=      5-min Rain = 0
KSM2 240903Z 06007KT 19/16 A2996 RMK A01 T01910164  RH  084%=      5-min Rain = 0
KSM2 240904Z 06008KT 19/16 A2996 RMK A01 T01910164  RH  084%=      5-min Rain = 0
KSM2 240905Z 06007KT 19/16 A2996 RMK A01 T01900164  RH  085%=      5-min Rain = 0
KSM2 240906Z 06008KT 19/16 A2996 RMK A01 T01900164  RH  085%=      5-min Rain = 0
KSM2 240907Z 06006KT 19/17 A2996 RMK A01 T01900165  RH  085%=      5-min Rain = 0
KSM2 240908Z 06007KT 19/17 A2996 RMK A01 T01890165  RH  086%=      5-min Rain = 0
KSM2 240909Z 07005KT 19/17 A2996 RMK A01 T01890165  RH  085%=      5-min Rain = 0
KSM2 240910Z 07005KT 19/17 A2996 RMK A01 T01890165  RH  086%=      5-min Rain = 0
KSM2 240911Z 07007KT 19/17 A2996 RMK A01 T01890165  RH  086%=      5-min Rain = 0
KSM2 240912Z 07006KT 19/17 A2996 RMK A01 T01890165  RH  086%=      5-min Rain = 0
KSM2 240913Z 08007KT 19/16 A2996 RMK A01 T01880164  RH  086%=      5-min Rain = 0
KSM2 240914Z 08007KT 19/16 A2996 RMK A01 T01870164  RH  086%=      5-min Rain = 0
KSM2 240915Z 08007KT 19/16 A2996 RMK A01 T01870164  RH  087%=      5-min Rain = 0
KSM2 240916Z 08006KT 19/16 A2996 RMK A01 T01870164  RH  087%=      5-min Rain = 0
KSM2 240917Z 08007KT 19/16 A2996 RMK A01 T01870164  RH  087%=      5-min Rain = 0
KSM2 240918Z 08007KT 19/16 A2996 RMK A01 T01860164  RH  087%=      5-min Rain = 0
KSM2 240919Z 08007KT 19/16 A2996 RMK A01 T01860164  RH  087%=      5-min Rain = 0
KSM2 240920Z 08008KT 19/16 A2996 RMK A01 T01860164  RH  087%=      5-min Rain = 0
KSM2 240921Z 08007KT 19/17 A2996 RMK A01 T01860165  RH  087%=      5-min Rain = 0
KSM2 240922Z 08008KT 19/17 A2996 RMK A01 T01860165  RH  087%=      5-min Rain = 0
KSM2 240923Z 08008KT 19/17 A2996 RMK A01 T01860165  RH  087%=      5-min Rain = 0
KSM2 240924Z 07007KT 19/17 A2996 RMK A01 T01860165  RH  087%=      5-min Rain = 0
KSM2 240925Z 07006KT 19/17 A2996 RMK A01 T01870165  RH  087%=      5-min Rain = 0
KSM2 240926Z 07006KT 19/16 A2996 RMK A01 T01860164  RH  087%=      5-min Rain = 0
KSM2 240927Z 06005KT 19/17 A2996 RMK A01 T01870165  RH  087%=      5-min Rain = 0
KSM2 240928Z 06006KT 19/16 A2996 RMK A01 T01870164  RH  086%=      5-min Rain = 0
KSM2 240929Z 06007KT 19/17 A2996 RMK A01 T01880165  RH  086%=      5-min Rain = 0
KSM2 240930Z 06006KT 19/16 A2996 RMK A01 T01880164  RH  086%=      5-min Rain = 0
KSM2 240931Z 07006KT 19/17 A2996 RMK A01 T01880165  RH  086%=      5-min Rain = 0
KSM2 240932Z 06005KT 19/16 A2996 RMK A01 T01880164  RH  086%=      5-min Rain = 0
KSM2 240933Z 06005KT 19/16 A2996 RMK A01 T01870164  RH  086%=      5-min Rain = 0
KSM2 240934Z 06005KT 19/16 A2996 RMK A01 T01870164  RH  087%=      5-min Rain = 0
KSM2 240935Z 07005KT 19/16 A2996 RMK A01 T01860164  RH  087%=      5-min Rain = 0
KSM2 240936Z 07005KT 19/16 A2996 RMK A01 T01860164  RH  087%=      5-min Rain = 0
KSM2 240937Z 07005KT 19/16 A2996 RMK A01 T01860164  RH  087%=      5-min Rain = 0
KSM2 240938Z 07005KT 19/16 A2996 RMK A01 T01860164  RH  087%=      5-min Rain = 0
KSM2 240939Z 07006KT 19/16 A2996 RMK A01 T01860164  RH  087%=      5-min Rain = 0
KSM2 240940Z 07006KT 19/17 A2996 RMK A01 T01860165  RH  087%=      5-min Rain = 0
KSM2 240941Z 07005KT 19/16 A2996 RMK A01 T01860164  RH  087%=      5-min Rain = 0
KSM2 240942Z 06005KT 19/17 A2996 RMK A01 T01860165  RH  087%=      5-min Rain = 0
KSM2 240943Z 06007KT 19/16 A2996 RMK A01 T01860164  RH  087%=      5-min Rain = 0
KSM2 240944Z 06006KT 19/16 A2996 RMK A01 T01860164  RH  087%=      5-min Rain = 0
KSM2 240945Z 07006KT 19/17 A2996 RMK A01 T01870165  RH  087%=      5-min Rain = 0
KSM2 240946Z 07006KT 19/16 A2996 RMK A01 T01870164  RH  087%=      5-min Rain = 0
KSM2 240947Z 07006KT 19/16 A2996 RMK A01 T01870164  RH  087%=      5-min Rain = 0
KSM2 240948Z 07007KT 19/17 A2996 RMK A01 T01870165  RH  087%=      5-min Rain = 0
KSM2 240949Z 07006KT 19/17 A2996 RMK A01 T01870165  RH  087%=      5-min Rain = 0
KSM2 240950Z 08007KT 19/16 A2996 RMK A01 T01860164  RH  087%=      5-min Rain = 0
KSM2 240951Z 08007KT 19/16 A2996 RMK A01 T01850164  RH  087%=      5-min Rain = 0
KSM2 240952Z 08008KT 19/16 A2996 RMK A01 T01850164  RH  088%=      5-min Rain = 0
KSM2 240953Z 08008KT 18/16 A2997 RMK A01 T01840164  RH  088%=      5-min Rain = 0
KSM2 240954Z 08009KT 18/16 A2997 RMK A01 T01840164  RH  088%=      5-min Rain = 0
KSM2 240955Z 08009KT 18/16 A2997 RMK A01 T01840164  RH  088%=      5-min Rain = 0
KSM2 240956Z 08007KT 18/16 A2997 RMK A01 T01840164  RH  088%=      5-min Rain = 0
KSM2 240957Z 07006KT 18/16 A2997 RMK A01 T01840164  RH  088%=      5-min Rain = 0
KSM2 240958Z 06006KT 19/17 A2997 RMK A01 T01850165  RH  088%=      5-min Rain = 0
KSM2 240959Z 06007KT 19/17 A2997 RMK A01 T01870165  RH  087%=      5-min Rain = 0
KSM2 241000Z 06007KT 19/17 A2997 RMK A01 T01870165  RH  087%=      5-min Rain = 0
KSM2 241001Z 06007KT 19/17 A2997 RMK A01 T01880166  RH  087%=      5-min Rain = 0
KSM2 241002Z 06007KT 19/17 A2997 RMK A01 T01880166  RH  087%=      5-min Rain = 0
KSM2 241003Z 06005KT 19/17 A2997 RMK A01 T01890166  RH  087%=      5-min Rain = 0
KSM2 241004Z 07005KT 19/17 A2997 RMK A01 T01880165  RH  086%=      5-min Rain = 0
KSM2 241005Z 06005KT 19/17 A2997 RMK A01 T01880165  RH  087%=      5-min Rain = 0
KSM2 241006Z 07006KT 19/17 A2997 RMK A01 T01870165  RH  087%=      5-min Rain = 0
KSM2 241007Z 06006KT 19/17 A2997 RMK A01 T01870165  RH  087%=      5-min Rain = 0
KSM2 241008Z 06006KT 19/16 A2997 RMK A01 T01860164  RH  087%=      5-min Rain = 0
KSM2 241009Z 06007KT 19/16 A2997 RMK A01 T01860164  RH  087%=      5-min Rain = 0
KSM2 241010Z 06007KT 19/16 A2997 RMK A01 T01860164  RH  087%=      5-min Rain = 0
KSM2 241011Z 06008KT 19/16 A2997 RMK A01 T01860164  RH  087%=      5-min Rain = 0
KSM2 241012Z 06008KT 19/17 A2998 RMK A01 T01870165  RH  087%=      5-min Rain = 0
KSM2 241013Z 06007KT 19/17 A2998 RMK A01 T01880165  RH  087%=      5-min Rain = 0
KSM2 241014Z 07007KT 19/17 A2998 RMK A01 T01880166  RH  087%=      5-min Rain = 0
KSM2 241015Z 07007KT 19/17 A2997 RMK A01 T01880166  RH  087%=      5-min Rain = 0
KSM2 241016Z 07007KT 19/17 A2997 RMK A01 T01880166  RH  087%=      5-min Rain = 0
KSM2 241017Z 07007KT 19/17 A2997 RMK A01 T01880166  RH  087%=      5-min Rain = 0
KSM2 241018Z 07008KT 19/17 A2997 RMK A01 T01880166  RH  087%=      5-min Rain = 0
KSM2 241019Z 07008KT 19/17 A2997 RMK A01 T01890167  RH  087%=      5-min Rain = 0
KSM2 241020Z 06007KT 19/17 A2997 RMK A01 T01890167  RH  087%=      5-min Rain = 0
KSM2 241021Z 06008KT 19/17 A2997 RMK A01 T01890167  RH  087%=      5-min Rain = 0
KSM2 241022Z 06009KT 19/17 A2997 RMK A01 T01900167  RH  087%=      5-min Rain = 0
KSM2 241023Z 06009KT 19/17 A2998 RMK A01 T01900167  RH  087%=      5-min Rain = 0
KSM2 241024Z 06010KT 19/17 A2998 RMK A01 T01900167  RH  086%=      5-min Rain = 0
KSM2 241025Z 06010KT 19/17 A2998 RMK A01 T01900167  RH  086%=      5-min Rain = 0
KSM2 241026Z 06009KT 19/17 A2998 RMK A01 T01910167  RH  086%=      5-min Rain = 0
KSM2 241027Z 06009KT 19/17 A2998 RMK A01 T01910167  RH  086%=      5-min Rain = 0
KSM2 241028Z 06009KT 19/17 A2998 RMK A01 T01900167  RH  087%=      5-min Rain = 0
KSM2 241029Z 06008KT 19/17 A2998 RMK A01 T01900167  RH  087%=      5-min Rain = 0
KSM2 241030Z 06008KT 19/17 A2998 RMK A01 T01890167  RH  087%=      5-min Rain = 0
KSM2 241031Z 06008KT 19/17 A2998 RMK A01 T01880167  RH  087%=      5-min Rain = 0
KSM2 241032Z 06008KT 19/17 A2998 RMK A01 T01880167  RH  087%=      5-min Rain = 0
KSM2 241033Z 06008KT 19/17 A2998 RMK A01 T01880167  RH  088%=      5-min Rain = 0
KSM2 241034Z 06007KT 19/17 A2998 RMK A01 T01880167  RH  088%=      5-min Rain = 0
KSM2 241035Z 06008KT 19/17 A2998 RMK A01 T01870167  RH  088%=      5-min Rain = 0
KSM2 241036Z 06009KT 19/17 A2998 RMK A01 T01870167  RH  088%=      5-min Rain = 0
KSM2 241037Z 06009KT 19/17 A2998 RMK A01 T01870168  RH  088%=      5-min Rain = 0
KSM2 241038Z 06008KT 19/17 A2998 RMK A01 T01870168  RH  088%=      5-min Rain = 0
KSM2 241039Z 06008KT 19/17 A2998 RMK A01 T01870168  RH  089%=      5-min Rain = 0
KSM2 241040Z 06008KT 19/17 A2998 RMK A01 T01860167  RH  089%=      5-min Rain = 0
KSM2 241041Z 06007KT 19/17 A2998 RMK A01 T01860167  RH  089%=      5-min Rain = 0
KSM2 241042Z 06008KT 19/17 A2998 RMK A01 T01850167  RH  089%=      5-min Rain = 0
KSM2 241043Z 06009KT 19/17 A2998 RMK A01 T01850167  RH  089%=      5-min Rain = 0
KSM2 241044Z 06009KT 19/17 A2998 RMK A01 T01850168  RH  090%=      5-min Rain = 0
KSM2 241045Z 06010KT 19/17 A2998 RMK A01 T01850168  RH  090%=      5-min Rain = 0
KSM2 241046Z 06008KT 19/17 A2998 RMK A01 T01850167  RH  090%=      5-min Rain = 0
KSM2 241047Z 06008KT 19/17 A2998 RMK A01 T01850167  RH  089%=      5-min Rain = 0
KSM2 241048Z 06008KT 19/17 A2998 RMK A01 T01850167  RH  090%=      5-min Rain = 0
KSM2 241049Z 06007KT 19/17 A2998 RMK A01 T01850167  RH  089%=      5-min Rain = 0
KSM2 241050Z 06009KT 19/17 A2998 RMK A01 T01850168  RH  090%=      5-min Rain = 0
KSM2 241051Z 06008KT 19/17 A2998 RMK A01 T01850168  RH  090%=      5-min Rain = 0
KSM2 241052Z 06008KT 19/17 A2998 RMK A01 T01850168  RH  090%=      5-min Rain = 0
KSM2 241053Z 07007KT 19/17 A2998 RMK A01 T01850168  RH  090%=      5-min Rain = 0
KSM2 241054Z 06008KT 19/17 A2999 RMK A01 T01850168  RH  090%=      5-min Rain = 0
KSM2 241055Z 06007KT 19/17 A2999 RMK A01 T01850168  RH  090%=      5-min Rain = 0
KSM2 241056Z 06006KT 18/17 A2999 RMK A01 T01840168  RH  090%=      5-min Rain = 0
KSM2 241057Z 07007KT 18/17 A2999 RMK A01 T01840167  RH  090%=      5-min Rain = 0
KSM2 241058Z 07008KT 18/17 A2999 RMK A01 T01840168  RH  090%=      5-min Rain = 0
KSM2 241059Z 07007KT 18/17 A2999 RMK A01 T01840168  RH  090%=      5-min Rain = 0
KSM2 241100Z 06007KT 18/17 A2999 RMK A01 T01840168  RH  090%=      5-min Rain = 0
KSM2 241101Z 06009KT 18/17 A2999 RMK A01 T01840167  RH  090%=      5-min Rain = 0
KSM2 241102Z 06009KT 18/17 A2999 RMK A01 T01840168  RH  090%=      5-min Rain = 0
KSM2 241103Z 06009KT 18/17 A2999 RMK A01 T01840168  RH  090%=      5-min Rain = 0
KSM2 241104Z 06010KT 18/17 A2999 RMK A01 T01840167  RH  090%=      5-min Rain = 0
KSM2 241105Z 06011KT 18/17 A2998 RMK A01 T01840167  RH  090%=      5-min Rain = 0
KSM2 241106Z 06011KT 18/17 A2998 RMK A01 T01840167  RH  090%=      5-min Rain = 0
KSM2 241107Z 06010KT 18/17 A2999 RMK A01 T01840168  RH  090%=      5-min Rain = 0
KSM2 241108Z 06010KT 18/17 A2999 RMK A01 T01840168  RH  090%=      5-min Rain = 0
KSM2 241109Z 06011KT 18/17 A2999 RMK A01 T01840168  RH  090%=      5-min Rain = 0
KSM2 241110Z 06010KT 18/17 A2999 RMK A01 T01840168  RH  090%=      5-min Rain = 0
KSM2 241111Z 06010KT 18/17 A2999 RMK A01 T01840168  RH  090%=      5-min Rain = 0
KSM2 241112Z 06010KT 18/17 A2999 RMK A01 T01840168  RH  090%=      5-min Rain = 0
KSM2 241113Z 06010KT 18/17 A2999 RMK A01 T01840168  RH  090%=      5-min Rain = 0
KSM2 241114Z 06009KT 18/17 A2999 RMK A01 T01840168  RH  090%=      5-min Rain = 0
KSM2 241115Z 05010KT 18/17 A2999 RMK A01 T01840168  RH  090%=      5-min Rain = 0
KSM2 241116Z 05010KT 19/17 A2999 RMK A01 T01850168  RH  090%=      5-min Rain = 0
KSM2 241117Z 05010KT 19/17 A2999 RMK A01 T01850169  RH  090%=      5-min Rain = 0
KSM2 241118Z 05010KT 19/17 A2999 RMK A01 T01850169  RH  090%=      5-min Rain = 0
KSM2 241119Z 05010KT 18/17 A2999 RMK A01 T01840168  RH  090%=      5-min Rain = 0
KSM2 241120Z 05008KT 18/17 A2999 RMK A01 T01840166  RH  090%=      5-min Rain = 0
KSM2 241121Z 05010KT 18/17 A2999 RMK A01 T01830165  RH  089%=      5-min Rain = 0
KSM2 241122Z 05010KT 18/16 A2999 RMK A01 T01820164  RH  089%=      5-min Rain = 0
KSM2 241123Z 05010KT 18/16 A2999 RMK A01 T01820162  RH  088%=      5-min Rain = 0
KSM2 241124Z 05010KT 18/16 A2999 RMK A01 T01810161  RH  088%=      5-min Rain = 0
KSM2 241125Z 05009KT 18/16 A2999 RMK A01 T01810161  RH  088%=      5-min Rain = 0
KSM2 241126Z 05010KT 18/16 A2999 RMK A01 T01800160  RH  088%=      5-min Rain = 0
KSM2 241127Z 05011KT 18/16 A2999 RMK A01 T01800160  RH  088%=      5-min Rain = 0
KSM2 241128Z 05009KT 18/16 A2999 RMK A01 T01800159  RH  088%=      5-min Rain = 0
KSM2 241129Z 05010KT 18/16 A2999 RMK A01 T01790159  RH  088%=      5-min Rain = 0
KSM2 241130Z 05009KT 18/16 A2999 RMK A01 T01790159  RH  088%=      5-min Rain = 0
KSM2 241131Z 05008KT 18/16 A2999 RMK A01 T01790159  RH  088%=      5-min Rain = 0
KSM2 241132Z 05009KT 18/16 A2999 RMK A01 T01780158  RH  088%=      5-min Rain = 0
KSM2 241133Z 05010KT 18/16 A30 RMK A01 T01780158  RH  088%=      5-min Rain = 0
KSM2 241134Z 05010KT 18/16 A30 RMK A01 T01780158  RH  088%=      5-min Rain = 0
KSM2 241135Z 05010KT 18/16 A30 RMK A01 T01770157  RH  088%=      5-min Rain = 0
KSM2 241136Z 04009KT 18/16 A30 RMK A01 T01770157  RH  088%=      5-min Rain = 0
KSM2 241137Z 05010KT 18/16 A30 RMK A01 T01770157  RH  088%=      5-min Rain = 0
KSM2 241138Z 04012KT 18/16 A30 RMK A01 T01770157  RH  088%=      5-min Rain = 0
KSM2 241139Z 04010KT 18/16 A30 RMK A01 T01760156  RH  088%=      5-min Rain = 0
KSM2 241140Z 04011KT 18/16 A30 RMK A01 T01760156  RH  088%=      5-min Rain = 0
KSM2 241141Z 04010KT 18/16 A30 RMK A01 T01750155  RH  088%=      5-min Rain = 0
KSM2 241142Z 04011KT 18/15 A30 RMK A01 T01750154  RH  088%=      5-min Rain = 0
KSM2 241143Z 05010KT 17/15 A30 RMK A01 T01740154  RH  088%=      5-min Rain = 0
KSM2 241144Z 04009KT 17/15 A30 RMK A01 T01740154  RH  088%=      5-min Rain = 0
KSM2 241145Z 05008KT 17/15 A30 RMK A01 T01740153  RH  088%=      5-min Rain = 0
KSM2 241146Z 04010KT 17/15 A30 RMK A01 T01730153  RH  088%=      5-min Rain = 0
KSM2 241147Z 04011KT 17/15 A30 RMK A01 T01730153  RH  088%=      5-min Rain = 0
KSM2 241148Z 05010KT 17/15 A30 RMK A01 T01730153  RH  088%=      5-min Rain = 0
KSM2 241149Z 04010KT 17/15 A30 RMK A01 T01730153  RH  088%=      5-min Rain = 0
KSM2 241150Z 04012KT 17/15 A30 RMK A01 T01730154  RH  088%=      5-min Rain = 0
KSM2 241151Z 04011KT 17/15 A30 RMK A01 T01730154  RH  088%=      5-min Rain = 0
KSM2 241152Z 04010KT 17/15 A30 RMK A01 T01740154  RH  088%=      5-min Rain = 0
KSM2 241153Z 05012KT 17/15 A30 RMK A01 T01740153  RH  088%=      5-min Rain = 0
KSM2 241154Z 05009KT 17/15 A30 RMK A01 T01740153  RH  088%=      5-min Rain = 0
KSM2 241155Z 04011KT 17/15 A30 RMK A01 T01740153  RH  088%=      5-min Rain = 0
KSM2 241156Z 04010KT 17/15 A30 RMK A01 T01730153  RH  088%=      5-min Rain = 0
KSM2 241157Z 04010KT 17/15 A3001 RMK A01 T01730153  RH  088%=      5-min Rain = 0
KSM2 241158Z 04011KT 17/15 A3001 RMK A01 T01730153  RH  088%=      5-min Rain = 0
KSM2 241159Z 04010KT 17/15 A3001 RMK A01 T01730153  RH  088%=      5-min Rain = 0
KSM2 241200Z 04010KT 17/15 A3001 RMK A01 T01720153  RH  088%=      5-min Rain = 0
KSM2 241201Z 04009KT 17/15 A3001 RMK A01 T01720153  RH  088%=      5-min Rain = 0
KSM2 241202Z 04010KT 17/15 A3001 RMK A01 T01720152  RH  088%=      5-min Rain = 0
KSM2 241203Z 05009KT 17/15 A3001 RMK A01 T01720152  RH  088%=      5-min Rain = 0
KSM2 241204Z 04010KT 17/15 A3001 RMK A01 T01720153  RH  088%=      5-min Rain = 0
KSM2 241205Z 05011KT 17/15 A3001 RMK A01 T01720152  RH  088%=      5-min Rain = 0
KSM2 241206Z 04011KT 17/15 A3001 RMK A01 T01720152  RH  088%=      5-min Rain = 0
KSM2 241207Z 04011KT 17/15 A3001 RMK A01 T01720153  RH  088%=      5-min Rain = 0
KSM2 241208Z 04011KT 17/15 A3001 RMK A01 T01730153  RH  088%=      5-min Rain = 0
KSM2 241209Z 04010KT 17/15 A3001 RMK A01 T01730153  RH  088%=      5-min Rain = 0
KSM2 241210Z 04010KT 17/15 A3001 RMK A01 T01730153  RH  088%=      5-min Rain = 0
KSM2 241211Z 05008KT 17/15 A3001 RMK A01 T01740153  RH  088%=      5-min Rain = 0
KSM2 241212Z 04010KT 17/15 A3001 RMK A01 T01740153  RH  088%=      5-min Rain = 0
KSM2 241213Z 05011KT 17/15 A3001 RMK A01 T01740153  RH  088%=      5-min Rain = 0
KSM2 241214Z 05009KT 17/15 A3001 RMK A01 T01740153  RH  088%=      5-min Rain = 0
KSM2 241215Z 05009KT 17/15 A3001 RMK A01 T01740153  RH  088%=      5-min Rain = 0
KSM2 241216Z 04011KT 17/15 A3001 RMK A01 T01740153  RH  088%=      5-min Rain = 0
KSM2 241217Z 05009KT 17/15 A3001 RMK A01 T01740154  RH  088%=      5-min Rain = 0
KSM2 241218Z 04010KT 17/15 A3001 RMK A01 T01740154  RH  088%=      5-min Rain = 0
KSM2 241219Z 05011KT 17/15 A3001 RMK A01 T01740153  RH  088%=      5-min Rain = 0
KSM2 241220Z 05011KT 17/15 A3001 RMK A01 T01730153  RH  088%=      5-min Rain = 0
KSM2 241221Z 05010KT 17/15 A3001 RMK A01 T01730153  RH  088%=      5-min Rain = 0
KSM2 241222Z 04010KT 17/15 A3001 RMK A01 T01730153  RH  088%=      5-min Rain = 0
KSM2 241223Z 05011KT 17/15 A3001 RMK A01 T01730153  RH  088%=      5-min Rain = 0
KSM2 241224Z 04012KT 17/15 A3001 RMK A01 T01740154  RH  088%=      5-min Rain = 0
KSM2 241225Z 04011KT 17/15 A3001 RMK A01 T01740154  RH  088%=      5-min Rain = 0
KSM2 241226Z 05012KT 18/15 A3001 RMK A01 T01750154  RH  088%=      5-min Rain = 0
KSM2 241227Z 05010KT 18/15 A3001 RMK A01 T01760154  RH  087%=      5-min Rain = 0
KSM2 241228Z 04010KT 18/15 A3001 RMK A01 T01760154  RH  087%=      5-min Rain = 0
KSM2 241229Z 05011KT 18/16 A3001 RMK A01 T01770155  RH  087%=      5-min Rain = 0
KSM2 241230Z 05011KT 18/16 A3001 RMK A01 T01770155  RH  087%=      5-min Rain = 0
KSM2 241231Z 05009KT 18/16 A3001 RMK A01 T01780155  RH  087%=      5-min Rain = 0
KSM2 241232Z 05010KT 18/16 A3001 RMK A01 T01780155  RH  086%=      5-min Rain = 0
KSM2 241233Z 05011KT 18/16 A3001 RMK A01 T01780155  RH  086%=      5-min Rain = 0
KSM2 241234Z 04009KT 18/16 A3001 RMK A01 T01790155  RH  086%=      5-min Rain = 0
KSM2 241235Z 04012KT 18/16 A3001 RMK A01 T01790156  RH  086%=      5-min Rain = 0
KSM2 241236Z 05012KT 18/16 A3002 RMK A01 T01800156  RH  086%=      5-min Rain = 0
KSM2 241237Z 05011KT 18/16 A3002 RMK A01 T01800156  RH  086%=      5-min Rain = 0
KSM2 241238Z 05011KT 18/16 A3001 RMK A01 T01800156  RH  085%=      5-min Rain = 0
KSM2 241239Z 05011KT 18/16 A3002 RMK A01 T01800156  RH  085%=      5-min Rain = 0
KSM2 241240Z 05011KT 18/16 A3002 RMK A01 T01800156  RH  086%=      5-min Rain = 0
KSM2 241241Z 05011KT 18/16 A3001 RMK A01 T01810156  RH  086%=      5-min Rain = 0
KSM2 241242Z 06010KT 18/16 A3002 RMK A01 T01810157  RH  086%=      5-min Rain = 0
KSM2 241243Z 05009KT 18/16 A3002 RMK A01 T01820158  RH  086%=      5-min Rain = 0
KSM2 241244Z 06009KT 18/16 A3002 RMK A01 T01820158  RH  086%=      5-min Rain = 0
KSM2 241245Z 06010KT 18/16 A3002 RMK A01 T01820159  RH  086%=      5-min Rain = 0
KSM2 241246Z 05009KT 18/16 A3002 RMK A01 T01830159  RH  086%=      5-min Rain = 0
KSM2 241247Z 05013KT 18/16 A3002 RMK A01 T01830159  RH  086%=      5-min Rain = 0
KSM2 241248Z 06011KT 18/16 A3002 RMK A01 T01830159  RH  086%=      5-min Rain = 0
KSM2 241249Z 06012KT 18/16 A3002 RMK A01 T01830159  RH  086%=      5-min Rain = 0
KSM2 241250Z 06010KT 18/16 A3002 RMK A01 T01840159  RH  086%=      5-min Rain = 0
KSM2 241251Z 06010KT 18/16 A3002 RMK A01 T01840159  RH  085%=      5-min Rain = 0
KSM2 241252Z 05012KT 19/16 A3002 RMK A01 T01850160  RH  085%=      5-min Rain = 0
KSM2 241253Z 05009KT 19/16 A3002 RMK A01 T01850160  RH  085%=      5-min Rain = 0
KSM2 241254Z 06011KT 19/16 A3002 RMK A01 T01850159  RH  085%=      5-min Rain = 0
KSM2 241255Z 05012KT 19/16 A3002 RMK A01 T01850160  RH  085%=      5-min Rain = 0
KSM2 241256Z 05013KT 19/16 A3002 RMK A01 T01850160  RH  085%=      5-min Rain = 0
KSM2 241257Z 05011KT 19/16 A3002 RMK A01 T01850160  RH  085%=      5-min Rain = 0
KSM2 241258Z 05011KT 19/16 A3002 RMK A01 T01850160  RH  085%=      5-min Rain = 0
KSM2 241259Z 05011KT 19/16 A3002 RMK A01 T01860159  RH  084%=      5-min Rain = 0
KSM2 241300Z 06009KT 19/16 A3002 RMK A01 T01870160  RH  084%=      5-min Rain = 0
KSM2 241301Z 05010KT 19/16 A3002 RMK A01 T01870160  RH  084%=      5-min Rain = 0
KSM2 241302Z 05010KT 19/16 A3002 RMK A01 T01870159  RH  084%=      5-min Rain = 0
KSM2 241303Z 05011KT 19/16 A3002 RMK A01 T01870159  RH  084%=      5-min Rain = 0
KSM2 241304Z 04013KT 19/16 A3002 RMK A01 T01880159  RH  083%=      5-min Rain = 0
KSM2 241305Z 05012KT 19/16 A3002 RMK A01 T01880160  RH  083%=      5-min Rain = 0
KSM2 241306Z 06011KT 19/16 A3002 RMK A01 T01880160  RH  084%=      5-min Rain = 0
KSM2 241307Z 04014KT 19/16 A3002 RMK A01 T01880160  RH  083%=      5-min Rain = 0
KSM2 241308Z 05012KT 19/16 A3002 RMK A01 T01880160  RH  083%=      5-min Rain = 0
KSM2 241309Z 04012KT 19/16 A3002 RMK A01 T01880160  RH  084%=      5-min Rain = 0
KSM2 241310Z 05011KT 19/16 A3003 RMK A01 T01880160  RH  084%=      5-min Rain = 0
KSM2 241311Z 05010KT 19/16 A3003 RMK A01 T01880160  RH  083%=      5-min Rain = 0
KSM2 241312Z 06011KT 19/16 A3003 RMK A01 T01890160  RH  083%=      5-min Rain = 0
KSM2 241313Z 05011KT 19/16 A3003 RMK A01 T01890159  RH  083%=      5-min Rain = 0
KSM2 241314Z 05012KT 19/16 A3003 RMK A01 T01890160  RH  083%=      5-min Rain = 0
KSM2 241315Z 06011KT 19/16 A3003 RMK A01 T01890159  RH  083%=      5-min Rain = 0
KSM2 241316Z 06011KT 19/16 A3003 RMK A01 T01890160  RH  083%=      5-min Rain = 0
KSM2 241317Z 06010KT 19/16 A3003 RMK A01 T01900160  RH  083%=      5-min Rain = 0
KSM2 241318Z 05010KT 19/16 A3003 RMK A01 T01910161  RH  083%=      5-min Rain = 0
KSM2 241319Z 06011KT 19/16 A3003 RMK A01 T01910160  RH  082%=      5-min Rain = 0
KSM2 241320Z 06011KT 19/16 A3003 RMK A01 T01920161  RH  082%=      5-min Rain = 0
KSM2 241321Z 06012KT 19/16 A3003 RMK A01 T01920160  RH  082%=      5-min Rain = 0
KSM2 241322Z 06011KT 19/16 A3003 RMK A01 T01920160  RH  082%=      5-min Rain = 0
KSM2 241323Z 05013KT 19/16 A3003 RMK A01 T01920160  RH  082%=      5-min Rain = 0
KSM2 241324Z 05011KT 19/16 A3003 RMK A01 T01930160  RH  082%=      5-min Rain = 0
KSM2 241325Z 06012KT 19/16 A3003 RMK A01 T01930160  RH  081%=      5-min Rain = 0
KSM2 241326Z 06014KT 19/16 A3003 RMK A01 T01930161  RH  081%=      5-min Rain = 0
KSM2 241327Z 06012KT 19/16 A3003 RMK A01 T01930160  RH  081%=      5-min Rain = 0
KSM2 241328Z 06012KT 19/16 A3003 RMK A01 T01940161  RH  081%=      5-min Rain = 0
KSM2 241329Z 05011KT 19/16 A3003 RMK A01 T01940161  RH  081%=      5-min Rain = 0
KSM2 241330Z 06013KT 19/16 A3003 RMK A01 T01940160  RH  081%=      5-min Rain = 0
KSM2 241331Z 06010KT 19/16 A3004 RMK A01 T01940160  RH  080%=      5-min Rain = 0
KSM2 241332Z 06011KT 20/16 A3004 RMK A01 T01950161  RH  080%=      5-min Rain = 0
KSM2 241333Z 06012KT 20/16 A3004 RMK A01 T01960160  RH  080%=      5-min Rain = 0
KSM2 241334Z 06012KT 20/16 A3004 RMK A01 T01960160  RH  080%=      5-min Rain = 0
KSM2 241335Z 06012KT 20/16 A3004 RMK A01 T01960160  RH  080%=      5-min Rain = 0
KSM2 241336Z 06012KT 20/16 A3003 RMK A01 T01960160  RH  080%=      5-min Rain = 0
KSM2 241337Z 06012KT 20/16 A3004 RMK A01 T01960160  RH  079%=      5-min Rain = 0
KSM2 241338Z 05012KT 20/16 A3004 RMK A01 T01970159  RH  079%=      5-min Rain = 0
KSM2 241339Z 06012KT 20/16 A3004 RMK A01 T01970159  RH  079%=      5-min Rain = 0
KSM2 241340Z 04011KT 20/16 A3004 RMK A01 T01970160  RH  079%=      5-min Rain = 0
KSM2 241341Z 05013KT 20/16 A3004 RMK A01 T01980159  RH  078%=      5-min Rain = 0
KSM2 241342Z 05012KT 20/16 A3004 RMK A01 T01980159  RH  078%=      5-min Rain = 0
KSM2 241343Z 05012KT 20/16 A3004 RMK A01 T01990158  RH  077%=      5-min Rain = 0
KSM2 241344Z 06012KT 20/16 A3004 RMK A01 T01990158  RH  077%=      5-min Rain = 0
KSM2 241345Z 06013KT 20/16 A3004 RMK A01 T02000157  RH  076%=      5-min Rain = 0
KSM2 241346Z 06013KT 20/16 A3004 RMK A01 T02000157  RH  076%=      5-min Rain = 0
KSM2 241347Z 07010KT 20/16 A3004 RMK A01 T01990156  RH  076%=      5-min Rain = 0
KSM2 241348Z 06010KT 20/16 A3004 RMK A01 T02000156  RH  076%=      5-min Rain = 0
KSM2 241349Z 06011KT 20/16 A3004 RMK A01 T02030157  RH  075%=      5-min Rain = 0
KSM2 241350Z 06012KT 21/15 A3004 RMK A01 T02050154  RH  073%=      5-min Rain = 0
KSM2 241351Z 06009KT 21/15 A3004 RMK A01 T02050154  RH  073%=      5-min Rain = 0
KSM2 241352Z 06009KT 21/16 A3004 RMK A01 T02050156  RH  073%=      5-min Rain = 0
KSM2 241353Z 05012KT 21/15 A3004 RMK A01 T02050153  RH  072%=      5-min Rain = 0
KSM2 241354Z 06013KT 20/15 A3004 RMK A01 T02040152  RH  072%=      5-min Rain = 0
KSM2 241355Z 06011KT 20/15 A3004 RMK A01 T02030152  RH  073%=      5-min Rain = 0
KSM2 241356Z 06012KT 20/15 A3004 RMK A01 T02030151  RH  072%=      5-min Rain = 0
KSM2 241357Z 07012KT 21/15 A3004 RMK A01 T02050152  RH  071%=      5-min Rain = 0
KSM2 241358Z 06012KT 21/15 A3004 RMK A01 T02060151  RH  071%=      5-min Rain = 0
KSM2 241359Z 06012KT 21/15 A3004 RMK A01 T02060150  RH  070%=      5-min Rain = 0
KSM2 241400Z 06013KT 21/15 A3004 RMK A01 T02060150  RH  070%=      5-min Rain = 0
KSM2 241401Z 05010KT 21/15 A3004 RMK A01 T02060150  RH  070%=      5-min Rain = 0
KSM2 241402Z 05011KT 21/15 A3004 RMK A01 T02070151  RH  070%=      5-min Rain = 0
KSM2 241403Z 06010KT 21/15 A3004 RMK A01 T02070149  RH  069%=      5-min Rain = 0
KSM2 241404Z 07010KT 21/15 A3004 RMK A01 T02080150  RH  069%=      5-min Rain = 0
KSM2 241405Z 08011KT 21/15 A3004 RMK A01 T02090150  RH  069%=      5-min Rain = 0
KSM2 241406Z 06009KT 21/15 A3004 RMK A01 T02090151  RH  069%=      5-min Rain = 0
KSM2 241407Z 05010KT 21/15 A3004 RMK A01 T02100151  RH  069%=      5-min Rain = 0
KSM2 241408Z 06010G15KT 21/15 A3004 RMK A01 T02110149  RH  068%=      5-min Rain = 0
KSM2 241409Z 06010KT 21/15 A3004 RMK A01 T02110149  RH  068%=      5-min Rain = 0
KSM2 241410Z 05011KT 21/15 A3004 RMK A01 T02110149  RH  068%=      5-min Rain = 0
KSM2 241411Z 05010KT 21/15 A3004 RMK A01 T02100148  RH  067%=      5-min Rain = 0
KSM2 241412Z 05010KT 21/15 A3004 RMK A01 T02090147  RH  067%=      5-min Rain = 0
KSM2 241413Z 05012KT 21/15 A3004 RMK A01 T02090148  RH  068%=      5-min Rain = 0
KSM2 241414Z 06012KT 21/15 A3004 RMK A01 T02100148  RH  068%=      5-min Rain = 0
KSM2 241415Z 06011KT 21/15 A3004 RMK A01 T02100149  RH  068%=      5-min Rain = 0
KSM2 241416Z 06012KT 21/15 A3004 RMK A01 T02110149  RH  068%=      5-min Rain = 0
KSM2 241417Z 06012KT 21/15 A3004 RMK A01 T02120149  RH  068%=      5-min Rain = 0
KSM2 241418Z 06010KT 21/15 A3004 RMK A01 T02120150  RH  068%=      5-min Rain = 0
KSM2 241419Z 07011KT 21/15 A3004 RMK A01 T02120150  RH  068%=      5-min Rain = 0
KSM2 241420Z 08011KT 21/15 A3004 RMK A01 T02130151  RH  068%=      5-min Rain = 0
KSM2 241421Z 08011KT 21/15 A3004 RMK A01 T02140151  RH  067%=      5-min Rain = 0
KSM2 241422Z 08011KT 22/15 A3004 RMK A01 T02160152  RH  067%=      5-min Rain = 0
KSM2 241423Z 07010KT 22/15 A3004 RMK A01 T02170150  RH  066%=      5-min Rain = 0
KSM2 241424Z 06009KT 22/15 A3004 RMK A01 T02170150  RH  066%=      5-min Rain = 0
KSM2 241425Z 06012KT 22/15 A3004 RMK A01 T02170150  RH  065%=      5-min Rain = 0
KSM2 241426Z 07011KT 22/15 A3004 RMK A01 T02170150  RH  066%=      5-min Rain = 0
KSM2 241427Z 06010KT 22/15 A3004 RMK A01 T02170150  RH  065%=      5-min Rain = 0
KSM2 241428Z 07010KT 22/15 A3004 RMK A01 T02170150  RH  065%=      5-min Rain = 0
KSM2 241429Z 06012KT 22/15 A3004 RMK A01 T02180149  RH  065%=      5-min Rain = 0
KSM2 241430Z 07010KT 22/15 A3004 RMK A01 T02180150  RH  065%=      5-min Rain = 0
KSM2 241431Z 07010KT 22/15 A3004 RMK A01 T02180151  RH  065%=      5-min Rain = 0
KSM2 241432Z 07012G18KT 22/15 A3004 RMK A01 T02190150  RH  065%=      5-min Rain = 0
KSM2 241433Z 07009KT 22/15 A3004 RMK A01 T02210152  RH  065%=      5-min Rain = 0
KSM2 241434Z 07011KT 22/15 A3004 RMK A01 T02220151  RH  064%=      5-min Rain = 0
KSM2 241435Z 07011KT 22/15 A3004 RMK A01 T02220151  RH  064%=      5-min Rain = 0
KSM2 241436Z 08012KT 22/15 A3004 RMK A01 T02220152  RH  064%=      5-min Rain = 0
KSM2 241437Z 08014KT 22/15 A3004 RMK A01 T02220152  RH  065%=      5-min Rain = 0
KSM2 241438Z 08013KT 22/15 A3004 RMK A01 T02220152  RH  064%=      5-min Rain = 0
KSM2 241439Z 08012KT 22/15 A3004 RMK A01 T02230152  RH  064%=      5-min Rain = 0
KSM2 241440Z 08011KT 22/15 A3004 RMK A01 T02230151  RH  064%=      5-min Rain = 0
KSM2 241441Z 08011KT 22/15 A3004 RMK A01 T02230152  RH  064%=      5-min Rain = 0
KSM2 241442Z 07011KT 23/15 A3004 RMK A01 T02250151  RH  063%=      5-min Rain = 0
KSM2 241443Z 08010KT 23/15 A3004 RMK A01 T02250151  RH  063%=      5-min Rain = 0
KSM2 241444Z 06008G13KT 23/15 A3004 RMK A01 T02250152  RH  063%=      5-min Rain = 0
KSM2 241445Z 07011KT 23/15 A3004 RMK A01 T02260150  RH  062%=      5-min Rain = 0
KSM2 241446Z 07009KT 23/15 A3004 RMK A01 T02250151  RH  063%=      5-min Rain = 0
KSM2 241447Z 06012KT 23/15 A3004 RMK A01 T02260151  RH  063%=      5-min Rain = 0
KSM2 241448Z 07010KT 23/15 A3004 RMK A01 T02250150  RH  063%=      5-min Rain = 0
KSM2 241449Z 08010KT 23/15 A3005 RMK A01 T02250153  RH  064%=      5-min Rain = 0
KSM2 241450Z 06008KT 23/15 A3005 RMK A01 T02260152  RH  063%=      5-min Rain = 0
KSM2 241451Z 08010KT 23/15 A3005 RMK A01 T02280153  RH  062%=      5-min Rain = 0
KSM2 241452Z 07010KT 23/15 A3005 RMK A01 T02290153  RH  062%=      5-min Rain = 0
KSM2 241453Z 07010KT 23/15 A3005 RMK A01 T02290153  RH  062%=      5-min Rain = 0
KSM2 241454Z 06013KT 23/15 A3005 RMK A01 T02300152  RH  061%=      5-min Rain = 0
KSM2 241455Z 07013G18KT 23/15 A3005 RMK A01 T02290150  RH  061%=      5-min Rain = 0
KSM2 241456Z 06012KT 23/15 A3005 RMK A01 T02270150  RH  062%=      5-min Rain = 0
KSM2 241457Z 07010KT 23/15 A3005 RMK A01 T02250150  RH  062%=      5-min Rain = 0
KSM2 241458Z 07011KT 23/15 A3005 RMK A01 T02250151  RH  063%=      5-min Rain = 0
KSM2 241459Z 07010KT 23/15 A3005 RMK A01 T02250151  RH  063%=      5-min Rain = 0
KSM2 241500Z 07013KT 23/15 A3005 RMK A01 T02280154  RH  063%=      5-min Rain = 0
KSM2 241501Z 08014KT 23/15 A3005 RMK A01 T02310153  RH  061%=      5-min Rain = 0
KSM2 241502Z 08012KT 23/15 A3005 RMK A01 T02310153  RH  061%=      5-min Rain = 0
KSM2 241503Z 08011KT 23/15 A3005 RMK A01 T02310153  RH  062%=      5-min Rain = 0
KSM2 241504Z 08011KT 23/15 A3004 RMK A01 T02320154  RH  062%=      5-min Rain = 0
KSM2 241505Z 08011KT 23/15 A3004 RMK A01 T02330153  RH  061%=      5-min Rain = 0
KSM2 241506Z 09011KT 23/16 A3004 RMK A01 T02330155  RH  061%=      5-min Rain = 0
KSM2 241507Z 09011KT 23/15 A3004 RMK A01 T02340153  RH  061%=      5-min Rain = 0
KSM2 241508Z 08010G15KT 23/15 A3005 RMK A01 T02320154  RH  061%=      5-min Rain = 0
KSM2 241509Z 08011KT 23/15 A3005 RMK A01 T02320153  RH  061%=      5-min Rain = 0
KSM2 241510Z 07009G14KT 23/15 A3004 RMK A01 T02320154  RH  061%=      5-min Rain = 0
KSM2 241511Z 07012KT 23/15 A3004 RMK A01 T02340153  RH  061%=      5-min Rain = 0
KSM2 241512Z 09011KT 23/15 A3004 RMK A01 T02340153  RH  060%=      5-min Rain = 0
KSM2 241513Z 08009KT 23/15 A3004 RMK A01 T02340154  RH  061%=      5-min Rain = 0
KSM2 241514Z 08009KT 24/15 A3004 RMK A01 T02350154  RH  060%=      5-min Rain = 0
KSM2 241515Z 10013KT 24/16 A3004 RMK A01 T02360155  RH  060%=      5-min Rain = 0
KSM2 241516Z 09012KT 24/15 A3004 RMK A01 T02350154  RH  060%=      5-min Rain = 0
KSM2 241517Z 07012KT 24/15 A3004 RMK A01 T02350153  RH  060%=      5-min Rain = 0
KSM2 241518Z 07013KT 24/15 A3004 RMK A01 T02350152  RH  060%=      5-min Rain = 0
KSM2 241519Z 07012KT 23/15 A3004 RMK A01 T02330152  RH  061%=      5-min Rain = 0
KSM2 241520Z 08013KT 23/15 A3004 RMK A01 T02320153  RH  061%=      5-min Rain = 0
KSM2 241521Z 08012KT 23/15 A3004 RMK A01 T02340153  RH  060%=      5-min Rain = 0
KSM2 241522Z 09013KT 24/15 A3004 RMK A01 T02350153  RH  060%=      5-min Rain = 0
KSM2 241523Z 08013KT 24/15 A3004 RMK A01 T02360154  RH  060%=      5-min Rain = 0
KSM2 241524Z 09013KT 24/16 A3004 RMK A01 T02370155  RH  060%=      5-min Rain = 0
KSM2 241525Z 08013KT 24/15 A3004 RMK A01 T02370154  RH  060%=      5-min Rain = 0
KSM2 241526Z 07012KT 24/15 A3004 RMK A01 T02360154  RH  060%=      5-min Rain = 0
KSM2 241527Z 08014KT 24/16 A3004 RMK A01 T02370155  RH  060%=      5-min Rain = 0
KSM2 241528Z 08012KT 24/16 A3004 RMK A01 T02380155  RH  060%=      5-min Rain = 0
KSM2 241529Z 07012KT 24/16 A3004 RMK A01 T02390155  RH  059%=      5-min Rain = 0
KSM2 241530Z 07012KT 24/16 A3004 RMK A01 T02390155  RH  059%=      5-min Rain = 0
KSM2 241531Z 07011KT 24/16 A3004 RMK A01 T02380155  RH  060%=      5-min Rain = 0
KSM2 241532Z 08013KT 24/16 A3004 RMK A01 T02380155  RH  059%=      5-min Rain = 0
KSM2 241533Z 08012KT 24/16 A3004 RMK A01 T02390156  RH  060%=      5-min Rain = 0
KSM2 241534Z 08011KT 24/16 A3004 RMK A01 T02410156  RH  059%=      5-min Rain = 0
KSM2 241535Z 08010KT 24/16 A3004 RMK A01 T02410157  RH  059%=      5-min Rain = 0
KSM2 241536Z 08012KT 24/16 A3004 RMK A01 T02410156  RH  059%=      5-min Rain = 0
KSM2 241537Z 07011KT 24/16 A3004 RMK A01 T02400155  RH  059%=      5-min Rain = 0
KSM2 241538Z 07012KT 24/16 A3004 RMK A01 T02390155  RH  059%=      5-min Rain = 0
KSM2 241539Z 07012KT 24/16 A3004 RMK A01 T02410156  RH  059%=      5-min Rain = 0
KSM2 241540Z 07013KT 24/16 A3004 RMK A01 T02430156  RH  059%=      5-min Rain = 0
KSM2 241541Z 09012KT 24/16 A3004 RMK A01 T02430155  RH  058%=      5-min Rain = 0
KSM2 241542Z 09012KT 24/16 A3004 RMK A01 T02420157  RH  059%=      5-min Rain = 0
KSM2 241543Z 09008KT 24/16 A3004 RMK A01 T02430156  RH  059%=      5-min Rain = 0
KSM2 241544Z 07008KT 24/16 A3004 RMK A01 T02420158  RH  059%=      5-min Rain = 0
KSM2 241545Z 06007KT 24/16 A3004 RMK A01 T02430155  RH  058%=      5-min Rain = 0
KSM2 241546Z 08008KT 24/16 A3004 RMK A01 T02430158  RH  059%=      5-min Rain = 0
KSM2 241547Z 09010KT 25/16 A3004 RMK A01 T02460159  RH  058%=      5-min Rain = 0
KSM2 241548Z 08007KT 25/16 A3004 RMK A01 T02450158  RH  058%=      5-min Rain = 0
KSM2 241549Z 09008G14KT 24/16 A3003 RMK A01 T02440158  RH  058%=      5-min Rain = 0
KSM2 241550Z 09012KT 25/16 A3004 RMK A01 T02460160  RH  059%=      5-min Rain = 0
KSM2 241551Z 09013KT 25/16 A3003 RMK A01 T02490159  RH  057%=      5-min Rain = 0
KSM2 241552Z 09013KT 25/16 A3004 RMK A01 T02500159  RH  057%=      5-min Rain = 0
KSM2 241553Z 09010KT 25/16 A3004 RMK A01 T02490159  RH  057%=      5-min Rain = 0
KSM2 241554Z 07009KT 25/16 A3004 RMK A01 T02490158  RH  057%=      5-min Rain = 0
KSM2 241555Z 07013KT 25/16 A3004 RMK A01 T02490157  RH  057%=      5-min Rain = 0
KSM2 241556Z 07009KT 25/16 A3004 RMK A01 T02460156  RH  057%=      5-min Rain = 0
KSM2 241557Z 07010KT 25/16 A3003 RMK A01 T02450157  RH  058%=      5-min Rain = 0
KSM2 241558Z 09014KT 25/16 A3003 RMK A01 T02470157  RH  057%=      5-min Rain = 0
KSM2 241559Z 09015KT 25/16 A3003 RMK A01 T02480157  RH  057%=      5-min Rain = 0
KSM2 241600Z 08014KT 25/16 A3003 RMK A01 T02470157  RH  057%=      5-min Rain = 0
KSM2 241601Z 08009KT 25/16 A3003 RMK A01 T02460155  RH  057%=      5-min Rain = 0
KSM2 241602Z 09013KT 24/16 A3003 RMK A01 T02440157  RH  058%=      5-min Rain = 0
KSM2 241603Z 09008KT 25/16 A3003 RMK A01 T02460159  RH  058%=      5-min Rain = 0
KSM2 241604Z 09011KT 25/16 A3003 RMK A01 T02490160  RH  058%=      5-min Rain = 0
KSM2 241605Z 09014KT 25/16 A3003 RMK A01 T02510157  RH  056%=      5-min Rain = 0
KSM2 241606Z 08011KT 25/16 A3003 RMK A01 T02510157  RH  056%=      5-min Rain = 0
KSM2 241607Z 08009KT 25/16 A3003 RMK A01 T02500158  RH  057%=      5-min Rain = 0
KSM2 241608Z 09012KT 25/16 A3003 RMK A01 T02490158  RH  057%=      5-min Rain = 0
KSM2 241609Z 07008KT 25/16 A3003 RMK A01 T02500158  RH  057%=      5-min Rain = 0
KSM2 241610Z 09012KT 25/16 A3003 RMK A01 T02500159  RH  057%=      5-min Rain = 0
KSM2 241611Z 10012KT 25/16 A3003 RMK A01 T02510158  RH  056%=      5-min Rain = 0
KSM2 241612Z 09011KT 25/16 A3003 RMK A01 T02520158  RH  056%=      5-min Rain = 0
KSM2 241613Z 10007KT 25/16 A3003 RMK A01 T02510159  RH  057%=      5-min Rain = 0
KSM2 241614Z 09014KT 25/16 A3003 RMK A01 T02520161  RH  057%=      5-min Rain = 0
KSM2 241615Z 10010KT 26/16 A3003 RMK A01 T02550162  RH  056%=      5-min Rain = 0
KSM2 241616Z 08014KT 26/16 A3003 RMK A01 T02560161  RH  056%=      5-min Rain = 0
KSM2 241617Z 08011G17KT 26/16 A3003 RMK A01 T02570161  RH  055%=      5-min Rain = 0
KSM2 241618Z 08011G17KT 26/16 A3003 RMK A01 T02550161  RH  056%=      5-min Rain = 0
KSM2 241619Z 08011G16KT 26/16 A3003 RMK A01 T02550161  RH  056%=      5-min Rain = 0
KSM2 241620Z 08011KT 26/16 A3003 RMK A01 T02550161  RH  056%=      5-min Rain = 0
KSM2 241621Z 08011KT 25/16 A3003 RMK A01 T02540161  RH  056%=      5-min Rain = 0
KSM2 241622Z 09011KT 25/16 A3003 RMK A01 T02540160  RH  056%=      5-min Rain = 0
KSM2 241623Z 08010KT 25/16 A3003 RMK A01 T02540160  RH  056%=      5-min Rain = 0
KSM2 241624Z 09010KT 26/16 A3003 RMK A01 T02550161  RH  056%=      5-min Rain = 0
KSM2 241625Z 09012KT 26/16 A3003 RMK A01 T02560160  RH  055%=      5-min Rain = 0
KSM2 241626Z 10016KT 26/16 A3003 RMK A01 T02560160  RH  055%=      5-min Rain = 0
KSM2 241627Z 10013KT 26/16 A3003 RMK A01 T02570159  RH  055%=      5-min Rain = 0
KSM2 241628Z 09010KT 26/16 A3003 RMK A01 T02560162  RH  056%=      5-min Rain = 0
KSM2 241629Z 06010KT 26/16 A3003 RMK A01 T02580160  RH  055%=      5-min Rain = 0
KSM2 241630Z 09011KT 26/16 A3003 RMK A01 T02590160  RH  054%=      5-min Rain = 0
KSM2 241631Z 09014KT 26/16 A3003 RMK A01 T02600162  RH  055%=      5-min Rain = 0
KSM2 241632Z 09014KT 26/16 A3003 RMK A01 T02610161  RH  054%=      5-min Rain = 0
KSM2 241633Z 09010G16KT 26/16 A3003 RMK A01 T02590159  RH  054%=      5-min Rain = 0
KSM2 241634Z 09011KT 26/16 A3003 RMK A01 T02570161  RH  055%=      5-min Rain = 0
KSM2 241635Z 09009G15KT 26/16 A3003 RMK A01 T02570163  RH  056%=      5-min Rain = 0
KSM2 241636Z 07011KT 26/16 A3003 RMK A01 T02610162  RH  054%=      5-min Rain = 0
KSM2 241637Z 07009G14KT 26/16 A3003 RMK A01 T02620161  RH  054%=      5-min Rain = 0
KSM2 241638Z 07009KT 26/16 A3003 RMK A01 T02620161  RH  054%=      5-min Rain = 0
KSM2 241639Z 09010KT 26/16 A3003 RMK A01 T02630160  RH  053%=      5-min Rain = 0
KSM2 241640Z 08012KT 26/16 A3003 RMK A01 T02630161  RH  053%=      5-min Rain = 0
KSM2 241641Z 07011KT 26/16 A3003 RMK A01 T02620157  RH  053%=      5-min Rain = 0
KSM2 241642Z 10010KT 26/16 A3003 RMK A01 T02590158  RH  054%=      5-min Rain = 0
KSM2 241643Z 11009KT 26/16 A3003 RMK A01 T02590159  RH  054%=      5-min Rain = 0
KSM2 241644Z 08006KT 26/16 A3003 RMK A01 T02590159  RH  054%=      5-min Rain = 0
KSM2 241645Z 09010KT 26/16 A3003 RMK A01 T02600158  RH  053%=      5-min Rain = 0
KSM2 241646Z 08011G16KT 26/16 A3003 RMK A01 T02610159  RH  053%=      5-min Rain = 0
KSM2 241647Z 08008KT 26/16 A3003 RMK A01 T02620160  RH  054%=      5-min Rain = 0
KSM2 241648Z 07008KT 26/16 A3003 RMK A01 T02640160  RH  053%=      5-min Rain = 0
KSM2 241649Z 07008KT 26/16 A3003 RMK A01 T02630160  RH  053%=      5-min Rain = 0
KSM2 241650Z 08007KT 26/16 A3003 RMK A01 T02640163  RH  054%=      5-min Rain = 0
KSM2 241651Z 10008KT 27/16 A3003 RMK A01 T02660162  RH  053%=      5-min Rain = 0
KSM2 241652Z 09008KT 27/16 A3003 RMK A01 T02670161  RH  052%=      5-min Rain = 0
KSM2 241653Z 10009KT 26/16 A3003 RMK A01 T02640161  RH  053%=      5-min Rain = 0
KSM2 241654Z 10010KT 27/16 A3003 RMK A01 T02650163  RH  053%=      5-min Rain = 0
KSM2 241655Z 10007KT 27/16 A3003 RMK A01 T02670162  RH  052%=      5-min Rain = 0
KSM2 241656Z 08010KT 27/17 A3003 RMK A01 T02660166  RH  054%=      5-min Rain = 0
KSM2 241657Z 07009KT 27/16 A3003 RMK A01 T02680160  RH  052%=      5-min Rain = 0
KSM2 241658Z 06009KT 27/16 A3003 RMK A01 T02670159  RH  052%=      5-min Rain = 0
KSM2 241659Z 09009KT 27/16 A3003 RMK A01 T02650160  RH  053%=      5-min Rain = 0
KSM2 241700Z 06008G13KT 26/16 A3003 RMK A01 T02640160  RH  053%=      5-min Rain = 0
KSM2 241701Z 07006KT 26/16 A3003 RMK A01 T02640163  RH  054%=      5-min Rain = 0
KSM2 241702Z 10011KT 27/16 A3003 RMK A01 T02680163  RH  053%=      5-min Rain = 0
KSM2 241703Z 10009KT 27/16 A3003 RMK A01 T02670160  RH  052%=      5-min Rain = 0
KSM2 241704Z 12010KT 26/16 A3003 RMK A01 T02640158  RH  052%=      5-min Rain = 0
KSM2 241705Z 11011KT 26/16 A3003 RMK A01 T02630159  RH  053%=      5-min Rain = 0
KSM2 241706Z 09010KT 26/16 A3003 RMK A01 T02630159  RH  053%=      5-min Rain = 0
KSM2 241707Z 09007KT 26/16 A3003 RMK A01 T02630160  RH  053%=      5-min Rain = 0
KSM2 241708Z 13005KT 26/16 A3003 RMK A01 T02630157  RH  052%=      5-min Rain = 0
KSM2 241709Z 10011KT 26/16 A3003 RMK A01 T02630159  RH  053%=      5-min Rain = 0
KSM2 241710Z 10010KT 26/16 A3003 RMK A01 T02630161  RH  054%=      5-min Rain = 0
KSM2 241711Z 08009KT 27/16 A3003 RMK A01 T02650164  RH  054%=      5-min Rain = 0
KSM2 241712Z 08007KT 27/16 A3003 RMK A01 T02680164  RH  053%=      5-min Rain = 0
KSM2 241713Z 08007KT 27/16 A3003 RMK A01 T02710162  RH  051%=      5-min Rain = 0
KSM2 241714Z 07004KT 27/16 A3003 RMK A01 T02710160  RH  051%=      5-min Rain = 0
KSM2 241715Z 10009KT 27/16 A3003 RMK A01 T02700164  RH  052%=      5-min Rain = 0
KSM2 241716Z 11010KT 27/17 A3003 RMK A01 T02710165  RH  052%=      5-min Rain = 0
KSM2 241717Z 12006KT 27/17 A3003 RMK A01 T02700166  RH  053%=      5-min Rain = 0
KSM2 241718Z 09006KT 27/16 A3003 RMK A01 T02700164  RH  052%=      5-min Rain = 0
KSM2 241719Z 10007KT 27/17 A3003 RMK A01 T02690165  RH  053%=      5-min Rain = 0
KSM2 241720Z 11011KT 27/16 A3003 RMK A01 T02690162  RH  052%=      5-min Rain = 0
KSM2 241721Z 09008KT 27/16 A3003 RMK A01 T02690157  RH  050%=      5-min Rain = 0
KSM2 241722Z 10012KT 27/16 A3003 RMK A01 T02660161  RH  053%=      5-min Rain = 0
KSM2 241723Z 10009KT 27/16 A3003 RMK A01 T02660162  RH  053%=      5-min Rain = 0
KSM2 241724Z 11007KT 27/16 A3003 RMK A01 T02680162  RH  052%=      5-min Rain = 0
KSM2 241725Z 12004G10KT 27/16 A3002 RMK A01 T02670163  RH  053%=      5-min Rain = 0
KSM2 241726Z 11011KT 27/16 A3002 RMK A01 T02670160  RH  052%=      5-min Rain = 0
KSM2 241727Z 10011KT 27/16 A3002 RMK A01 T02680164  RH  053%=      5-min Rain = 0
KSM2 241728Z 10010KT 27/16 A3002 RMK A01 T02730163  RH  051%=      5-min Rain = 0
KSM2 241729Z 09008KT 27/16 A3002 RMK A01 T02730161  RH  050%=      5-min Rain = 0
KSM2 241730Z 09010KT 27/16 A3002 RMK A01 T02720163  RH  051%=      5-min Rain = 0
KSM2 241731Z 09010KT 27/16 A3002 RMK A01 T02730164  RH  052%=      5-min Rain = 0
KSM2 241732Z 08009KT 28/16 A3002 RMK A01 T02750164  RH  051%=      5-min Rain = 0
KSM2 241733Z 08007KT 28/16 A3002 RMK A01 T02760163  RH  050%=      5-min Rain = 0
KSM2 241734Z 07007KT 28/16 A3002 RMK A01 T02760162  RH  050%=      5-min Rain = 0
KSM2 241735Z 12008KT 28/16 A3002 RMK A01 T02760163  RH  050%=      5-min Rain = 0
KSM2 241736Z 13010KT 28/16 A3002 RMK A01 T02770157  RH  048%=      5-min Rain = 0
KSM2 241737Z 12010KT 27/16 A3002 RMK A01 T02740158  RH  049%=      5-min Rain = 0
KSM2 241738Z 12011KT 27/16 A3002 RMK A01 T02730156  RH  049%=      5-min Rain = 0
KSM2 241739Z 11008KT 27/16 A3002 RMK A01 T02710157  RH  050%=      5-min Rain = 0
KSM2 241740Z 12007KT 27/16 A3002 RMK A01 T02710160  RH  051%=      5-min Rain = 0
KSM2 241741Z 11010G15KT 27/16 A3002 RMK A01 T02730159  RH  050%=      5-min Rain = 0
KSM2 241742Z 12010KT 27/16 A3002 RMK A01 T02740161  RH  050%=      5-min Rain = 0
KSM2 241743Z 09012KT 28/16 A3002 RMK A01 T02770162  RH  050%=      5-min Rain = 0
KSM2 241744Z 10008KT 28/16 A3002 RMK A01 T02790160  RH  048%=      5-min Rain = 0
KSM2 241745Z 10009KT 28/16 A3002 RMK A01 T02780162  RH  049%=      5-min Rain = 0
KSM2 241746Z 11007KT 28/16 A3002 RMK A01 T02770157  RH  048%=      5-min Rain = 0
KSM2 241747Z 09007KT 28/16 A3002 RMK A01 T02760158  RH  048%=      5-min Rain = 0
KSM2 241748Z 08006KT 28/16 A3002 RMK A01 T02760158  RH  048%=      5-min Rain = 0
KSM2 241749Z 09006KT 28/16 A3002 RMK A01 T02760160  RH  049%=      5-min Rain = 0
KSM2 241750Z 11010KT 28/16 A3002 RMK A01 T02770159  RH  049%=      5-min Rain = 0
KSM2 241751Z 10012KT 28/16 A3002 RMK A01 T02790157  RH  048%=      5-min Rain = 0
KSM2 241752Z 11012KT 28/16 A3002 RMK A01 T02790157  RH  048%=      5-min Rain = 0
KSM2 241753Z 12007KT 28/16 A3002 RMK A01 T02780157  RH  048%=      5-min Rain = 0
KSM2 241754Z 13007KT 28/16 A3002 RMK A01 T02770155  RH  047%=      5-min Rain = 0
KSM2 241755Z 12005KT 28/15 A3002 RMK A01 T02750154  RH  048%=      5-min Rain = 0
KSM2 241756Z 11011KT 27/16 A3002 RMK A01 T02740157  RH  049%=      5-min Rain = 0
KSM2 241757Z 12007KT 28/16 A3002 RMK A01 T02750155  RH  048%=      5-min Rain = 0
KSM2 241758Z 10010KT 28/16 A3002 RMK A01 T02750155  RH  048%=      5-min Rain = 0
KSM2 241759Z 10010KT 28/16 A3002 RMK A01 T02790157  RH  048%=      5-min Rain = 0
KSM2 241800Z 09007KT 28/16 A3002 RMK A01 T02820157  RH  047%=      5-min Rain = 0
KSM2 241801Z 08006G13KT 28/16 A3002 RMK A01 T02820155  RH  046%=      5-min Rain = 0
KSM2 241802Z 11012KT 28/16 A3002 RMK A01 T02820159  RH  047%=      5-min Rain = 0
KSM2 241803Z 10009KT 28/16 A3002 RMK A01 T02810158  RH  047%=      5-min Rain = 0
KSM2 241804Z 10008KT 28/16 A3002 RMK A01 T02800157  RH  047%=      5-min Rain = 0
KSM2 241805Z 10010KT 28/16 A3002 RMK A01 T02800159  RH  048%=      5-min Rain = 0
KSM2 241806Z 09007KT 28/16 A3002 RMK A01 T02800159  RH  048%=      5-min Rain = 0
KSM2 241807Z 09005KT 28/16 A3002 RMK A01 T02780160  RH  049%=      5-min Rain = 0
KSM2 241808Z 06005KT 28/16 A3002 RMK A01 T02790159  RH  048%=      5-min Rain = 0
KSM2 241809Z 08007G14KT 28/16 A3002 RMK A01 T02810155  RH  046%=      5-min Rain = 0
KSM2 241810Z 09009KT 28/16 A3002 RMK A01 T02820159  RH  047%=      5-min Rain = 0
KSM2 241811Z 10007KT 28/16 A3002 RMK A01 T02840160  RH  047%=      5-min Rain = 0
KSM2 241812Z 12007KT 29/16 A3002 RMK A01 T02850163  RH  048%=      5-min Rain = 0
KSM2 241813Z 09009KT 29/17 A3002 RMK A01 T02860166  RH  048%=      5-min Rain = 0
KSM2 241814Z 09006G11KT 29/16 A3002 RMK A01 T02870160  RH  046%=      5-min Rain = 0
KSM2 241815Z 08008KT 28/16 A3002 RMK A01 T02840162  RH  048%=      5-min Rain = 0
KSM2 241816Z 08006KT 28/16 A3002 RMK A01 T02820163  RH  048%=      5-min Rain = 0
KSM2 241817Z 09005KT 28/16 A3002 RMK A01 T02820159  RH  047%=      5-min Rain = 0
KSM2 241818Z 09005KT 28/16 A3001 RMK A01 T02820157  RH  047%=      5-min Rain = 0
KSM2 241819Z 10007KT 28/16 A3001 RMK A01 T02810163  RH  049%=      5-min Rain = 0
KSM2 241820Z 10004G9KT 28/17 A3001 RMK A01 T02820165  RH  049%=      5-min Rain = 0
KSM2 241821Z 11009KT 28/16 A3001 RMK A01 T02840159  RH  047%=      5-min Rain = 0
KSM2 241822Z 11011KT 28/16 A3001 RMK A01 T02830161  RH  047%=      5-min Rain = 0
KSM2 241823Z 09009KT 28/16 A3001 RMK A01 T02830163  RH  048%=      5-min Rain = 0
KSM2 241824Z 10008KT 28/16 A3001 RMK A01 T02830160  RH  047%=      5-min Rain = 0
KSM2 241825Z 10007KT 28/16 A3001 RMK A01 T02820162  RH  048%=      5-min Rain = 0
KSM2 241826Z 11006KT 28/16 A3001 RMK A01 T02820160  RH  048%=      5-min Rain = 0
KSM2 241827Z 10008KT 28/16 A3001 RMK A01 T02840160  RH  047%=      5-min Rain = 0
KSM2 241828Z 11007KT 29/16 A3001 RMK A01 T02850156  RH  046%=      5-min Rain = 0
KSM2 241829Z 10007G12KT 28/16 A3001 RMK A01 T02820158  RH  047%=      5-min Rain = 0
KSM2 241830Z 10009KT 28/16 A3001 RMK A01 T02820159  RH  047%=      5-min Rain = 0
KSM2 241831Z 12010KT 28/16 A3001 RMK A01 T02830158  RH  047%=      5-min Rain = 0
KSM2 241832Z 12007KT 28/16 A3001 RMK A01 T02840157  RH  046%=      5-min Rain = 0
KSM2 241833Z 15005KT 28/16 A3001 RMK A01 T02820160  RH  048%=      5-min Rain = 0
KSM2 241834Z 13006KT 28/16 A3001 RMK A01 T02820159  RH  047%=      5-min Rain = 0
KSM2 241835Z 11010KT 28/16 A3001 RMK A01 T02840159  RH  047%=      5-min Rain = 0
KSM2 241836Z 10010KT 29/16 A3001 RMK A01 T02850159  RH  046%=      5-min Rain = 0
KSM2 241837Z 10009KT 29/16 A3001 RMK A01 T02890159  RH  045%=      5-min Rain = 0
KSM2 241838Z 10007KT 29/16 A3001 RMK A01 T02890160  RH  046%=      5-min Rain = 0
KSM2 241839Z 10008KT 29/15 A3001 RMK A01 T02880154  RH  044%=      5-min Rain = 0
KSM2 241840Z 11010KT 29/15 A3001 RMK A01 T02850153  RH  044%=      5-min Rain = 0
KSM2 241841Z 11006G11KT 28/16 A3001 RMK A01 T02820158  RH  047%=      5-min Rain = 0
KSM2 241842Z 15004KT 28/16 A3001 RMK A01 T02820157  RH  046%=      5-min Rain = 0
KSM2 241843Z 17005KT 28/15 A3001 RMK A01 T02820154  RH  046%=      5-min Rain = 0
KSM2 241844Z 15005KT 28/16 A3001 RMK A01 T02800155  RH  046%=      5-min Rain = 0
KSM2 241845Z 15004KT 28/15 A3001 RMK A01 T02800152  RH  046%=      5-min Rain = 0
KSM2 241846Z 14004KT 28/15 A3001 RMK A01 T02790152  RH  046%=      5-min Rain = 0
KSM2 241847Z 10005KT 28/16 A3001 RMK A01 T02790156  RH  047%=      5-min Rain = 0
KSM2 241848Z 10008KT 28/16 A3001 RMK A01 T02810158  RH  047%=      5-min Rain = 0
KSM2 241849Z 11009KT 28/16 A3001 RMK A01 T02840160  RH  047%=      5-min Rain = 0
KSM2 241850Z 14011KT 29/16 A3001 RMK A01 T02850158  RH  046%=      5-min Rain = 0
KSM2 241851Z 14011KT 28/15 A3001 RMK A01 T02840154  RH  045%=      5-min Rain = 0
KSM2 241852Z 13010KT 28/15 A3001 RMK A01 T02810153  RH  046%=      5-min Rain = 0
KSM2 241853Z 14007KT 28/15 A3001 RMK A01 T02800152  RH  046%=      5-min Rain = 0
KSM2 241854Z 15007KT 28/15 A3001 RMK A01 T02800151  RH  045%=      5-min Rain = 0
KSM2 241855Z 12008KT 28/16 A3001 RMK A01 T02800155  RH  046%=      5-min Rain = 0
KSM2 241856Z 11008KT 28/15 A3001 RMK A01 T02840154  RH  045%=      5-min Rain = 0
KSM2 241857Z 11006KT 28/15 A3001 RMK A01 T02840154  RH  045%=      5-min Rain = 0
KSM2 241858Z 10008KT 28/16 A3001 RMK A01 T02840155  RH  045%=      5-min Rain = 0
KSM2 241859Z 12008KT 29/16 A3001 RMK A01 T02850155  RH  045%=      5-min Rain = 0
KSM2 241900Z 14007KT 29/16 A3001 RMK A01 T02870155  RH  044%=      5-min Rain = 0
KSM2 241901Z 15005KT 29/15 A3001 RMK A01 T02870150  RH  043%=      5-min Rain = 0
KSM2 241902Z 17005KT 29/16 A30 RMK A01 T02850155  RH  045%=      5-min Rain = 0
KSM2 241903Z 17005KT 29/15 A30 RMK A01 T02850154  RH  045%=      5-min Rain = 0
KSM2 241904Z 18003KT 29/16 A30 RMK A01 T02850155  RH  045%=      5-min Rain = 0
KSM2 241905Z 16006KT 29/16 A30 RMK A01 T02850159  RH  046%=      5-min Rain = 0
KSM2 241906Z 15011KT 29/15 A30 RMK A01 T02860153  RH  044%=      5-min Rain = 0
KSM2 241907Z 14011KT 29/15 A30 RMK A01 T02850149  RH  043%=      5-min Rain = 0
KSM2 241908Z 13007KT 29/15 A30 RMK A01 T02850151  RH  044%=      5-min Rain = 0
KSM2 241909Z 12007KT 29/15 A30 RMK A01 T02870150  RH  043%=      5-min Rain = 0
KSM2 241910Z 10008KT 29/15 A30 RMK A01 T02880152  RH  044%=      5-min Rain = 0
KSM2 241911Z 11005KT 29/15 A30 RMK A01 T02880150  RH  043%=      5-min Rain = 0
KSM2 241912Z 09006KT 29/16 A30 RMK A01 T02890156  RH  045%=      5-min Rain = 0
KSM2 241913Z 13005KT 29/16 A30 RMK A01 T02920158  RH  044%=      5-min Rain = 0
KSM2 241914Z 10004KT 29/16 A30 RMK A01 T02940157  RH  044%=      5-min Rain = 0
KSM2 241915Z 09006KT 30/15 A30 RMK A01 T02950154  RH  042%=      5-min Rain = 0
KSM2 241916Z 08003KT 29/15 A30 RMK A01 T02940153  RH  042%=      5-min Rain = 0
KSM2 241917Z 08001KT 29/15 A30 RMK A01 T02940153  RH  042%=      5-min Rain = 0
KSM2 241918Z 11007KT 29/16 A30 RMK A01 T02940155  RH  043%=      5-min Rain = 0
KSM2 241919Z 10009KT 30/15 A30 RMK A01 T02960150  RH  041%=      5-min Rain = 0
KSM2 241920Z 09009KT 30/15 A30 RMK A01 T02970149  RH  041%=      5-min Rain = 0
KSM2 241921Z 07006KT 30/15 A30 RMK A01 T02960148  RH  040%=      5-min Rain = 0
KSM2 241922Z 08008KT 30/15 A30 RMK A01 T02950148  RH  041%=      5-min Rain = 0
KSM2 241923Z 12008KT 30/15 A30 RMK A01 T02960149  RH  041%=      5-min Rain = 0
KSM2 241924Z 14005KT 29/15 A30 RMK A01 T02940152  RH  042%=      5-min Rain = 0
KSM2 241925Z 14003KT 29/15 A30 RMK A01 T02920149  RH  042%=      5-min Rain = 0
KSM2 241926Z 19005KT 29/15 A30 RMK A01 T02920151  RH  042%=      5-min Rain = 0
KSM2 241927Z 20004KT 29/15 A2999 RMK A01 T02890146  RH  042%=      5-min Rain = 0
KSM2 241928Z 17004KT 29/15 A2999 RMK A01 T02870153  RH  044%=      5-min Rain = 0
KSM2 241929Z 10007KT 29/16 A2999 RMK A01 T02910156  RH  044%=      5-min Rain = 0
KSM2 241930Z 11009KT 30/16 A2999 RMK A01 T02990155  RH  042%=      5-min Rain = 0
KSM2 241931Z 11007KT 30/15 A2999 RMK A01 T03020149  RH  039%=      5-min Rain = 0
KSM2 241932Z 13004KT 30/15 A2999 RMK A01 T02980145  RH  039%=      5-min Rain = 0
KSM2 241933Z 12009KT 30/15 A2999 RMK A01 T02950150  RH  041%=      5-min Rain = 0
KSM2 241934Z 11009KT 30/16 A2999 RMK A01 T02950156  RH  043%=      5-min Rain = 0
KSM2 241935Z 11006KT 30/15 A2999 RMK A01 T02960150  RH  041%=      5-min Rain = 0
KSM2 241936Z 11005KT 29/15 A2999 RMK A01 T02930149  RH  041%=      5-min Rain = 0
KSM2 241937Z 09006KT 29/15 A2999 RMK A01 T02920149  RH  042%=      5-min Rain = 0
KSM2 241938Z 12006KT 29/16 A2999 RMK A01 T02910156  RH  044%=      5-min Rain = 0
KSM2 241939Z 14008KT 29/15 A2999 RMK A01 T02940153  RH  042%=      5-min Rain = 0
KSM2 241940Z 13004KT 30/16 A2999 RMK A01 T02950156  RH  043%=      5-min Rain = 0
KSM2 241941Z 13004KT 30/16 A2999 RMK A01 T02970158  RH  043%=      5-min Rain = 0
KSM2 241942Z 13006G11KT 30/16 A2999 RMK A01 T03000157  RH  042%=      5-min Rain = 0
KSM2 241943Z 10010KT 30/16 A2999 RMK A01 T03010157  RH  042%=      5-min Rain = 0
KSM2 241944Z 10009KT 30/15 A2999 RMK A01 T03020153  RH  041%=      5-min Rain = 0
KSM2 241945Z 09006KT 30/15 A2999 RMK A01 T03010153  RH  041%=      5-min Rain = 0
KSM2 241946Z 08006KT 30/16 A2999 RMK A01 T02990156  RH  042%=      5-min Rain = 0
KSM2 241947Z 07008KT 30/16 A2999 RMK A01 T03010156  RH  042%=      5-min Rain = 0
KSM2 241948Z 08009G16KT 30/15 A2998 RMK A01 T03030154  RH  041%=      5-min Rain = 0
KSM2 241949Z 12009KT 30/15 A2998 RMK A01 T03030154  RH  041%=      5-min Rain = 0
KSM2 241950Z 15007KT 30/15 A2999 RMK A01 T03020148  RH  039%=      5-min Rain = 0
KSM2 241951Z 17008KT 30/15 A2999 RMK A01 T02990145  RH  039%=      5-min Rain = 0
KSM2 241952Z 17007KT 30/14 A2999 RMK A01 T02950144  RH  040%=      5-min Rain = 0
KSM2 241953Z 18005KT 29/14 A2998 RMK A01 T02940141  RH  039%=      5-min Rain = 0
KSM2 241954Z 15007KT 29/14 A2998 RMK A01 T02920143  RH  040%=      5-min Rain = 0
KSM2 241955Z 13008KT 29/14 A2998 RMK A01 T02930144  RH  040%=      5-min Rain = 0
KSM2 241956Z 12008KT 30/15 A2998 RMK A01 T02990147  RH  040%=      5-min Rain = 0
KSM2 241957Z 15007KT 30/15 A2998 RMK A01 T03020145  RH  039%=      5-min Rain = 0
KSM2 241958Z 12003KT 30/16 A2998 RMK A01 T03020155  RH  041%=      5-min Rain = 0
KSM2 241959Z 15005KT 30/15 A2998 RMK A01 T03030146  RH  038%=      5-min Rain = 0
KSM2 242000Z 12008KT 30/15 A2998 RMK A01 T03020148  RH  039%=      5-min Rain = 0
KSM2 242001Z 12008KT 30/15 A2998 RMK A01 T03010147  RH  039%=      5-min Rain = 0
KSM2 242002Z 12005KT 30/15 A2998 RMK A01 T02990147  RH  039%=      5-min Rain = 0
KSM2 242003Z 09010KT 30/15 A2998 RMK A01 T02980148  RH  040%=      5-min Rain = 0
KSM2 242004Z 10010KT 30/15 A2998 RMK A01 T03020153  RH  040%=      5-min Rain = 0
KSM2 242005Z 11009KT 31/15 A2998 RMK A01 T03050152  RH  040%=      5-min Rain = 0
KSM2 242006Z 13006KT 30/15 A2998 RMK A01 T03040153  RH  040%=      5-min Rain = 0
KSM2 242007Z 18003KT 30/15 A2998 RMK A01 T03040154  RH  040%=      5-min Rain = 0
KSM2 242008Z 15002KT 30/15 A2998 RMK A01 T03010151  RH  040%=      5-min Rain = 0
KSM2 242009Z 09005KT 30/15 A2998 RMK A01 T03000153  RH  041%=      5-min Rain = 0
KSM2 242010Z 08007KT 30/15 A2998 RMK A01 T03020151  RH  040%=      5-min Rain = 0
KSM2 242011Z 08007KT 30/15 A2998 RMK A01 T03030153  RH  040%=      5-min Rain = 0
KSM2 242012Z 09005KT 30/16 A2998 RMK A01 T03030155  RH  041%=      5-min Rain = 0
KSM2 242013Z 09006KT 30/16 A2998 RMK A01 T03040155  RH  040%=      5-min Rain = 0
KSM2 242014Z 10008KT 31/16 A2998 RMK A01 T03050155  RH  040%=      5-min Rain = 0
KSM2 242015Z 12006KT 31/15 A2998 RMK A01 T03070152  RH  039%=      5-min Rain = 0
KSM2 242016Z 11008KT 31/16 A2998 RMK A01 T03060156  RH  040%=      5-min Rain = 0
KSM2 242017Z 10008KT 31/16 A2998 RMK A01 T03060156  RH  041%=      5-min Rain = 0
KSM2 242018Z 12005KT 31/15 A2998 RMK A01 T03060153  RH  040%=      5-min Rain = 0
KSM2 242019Z 15008KT 31/16 A2998 RMK A01 T03050157  RH  041%=      5-min Rain = 0
KSM2 242020Z 14008KT 30/15 A2998 RMK A01 T03040150  RH  039%=      5-min Rain = 0
KSM2 242021Z 09007KT 30/15 A2998 RMK A01 T03020154  RH  041%=      5-min Rain = 0
KSM2 242022Z 06006KT 30/15 A2998 RMK A01 T03030150  RH  039%=      5-min Rain = 0
KSM2 242023Z 07004KT 30/15 A2998 RMK A01 T03030153  RH  040%=      5-min Rain = 0
KSM2 242024Z 09007KT 31/16 A2998 RMK A01 T03060156  RH  040%=      5-min Rain = 0
KSM2 242025Z 08007KT 31/15 A2998 RMK A01 T03070152  RH  039%=      5-min Rain = 0
KSM2 242026Z 10005KT 31/15 A2998 RMK A01 T03060150  RH  039%=      5-min Rain = 0
KSM2 242027Z 11005KT 30/15 A2997 RMK A01 T03030148  RH  039%=      5-min Rain = 0
KSM2 242028Z 10008KT 30/16 A2997 RMK A01 T03020156  RH  041%=      5-min Rain = 0
KSM2 242029Z 10009KT 31/15 A2997 RMK A01 T03070153  RH  039%=      5-min Rain = 0
KSM2 242030Z 10008KT 31/15 A2997 RMK A01 T03090150  RH  038%=      5-min Rain = 0
KSM2 242031Z 10008KT 31/15 A2997 RMK A01 T03070150  RH  039%=      5-min Rain = 0
KSM2 242032Z 11010KT 31/15 A2997 RMK A01 T03050153  RH  040%=      5-min Rain = 0
KSM2 242033Z 09006KT 31/16 A2997 RMK A01 T03050155  RH  040%=      5-min Rain = 0
KSM2 242034Z 09006KT 31/16 A2997 RMK A01 T03060157  RH  040%=      5-min Rain = 0
KSM2 242035Z 09007KT 31/16 A2997 RMK A01 T03090159  RH  040%=      5-min Rain = 0
KSM2 242036Z 10005KT 31/16 A2997 RMK A01 T03090156  RH  040%=      5-min Rain = 0
KSM2 242037Z 12008G13KT 31/15 A2997 RMK A01 T03070152  RH  039%=      5-min Rain = 0
KSM2 242038Z 11007KT 30/15 A2997 RMK A01 T03030150  RH  039%=      5-min Rain = 0
KSM2 242039Z 12009KT 30/15 A2997 RMK A01 T03010151  RH  040%=      5-min Rain = 0
KSM2 242040Z 09012KT 30/16 A2997 RMK A01 T03020155  RH  041%=      5-min Rain = 0
KSM2 242041Z 10010KT 31/16 A2997 RMK A01 T03060157  RH  041%=      5-min Rain = 0
KSM2 242042Z 11009KT 31/16 A2997 RMK A01 T03080155  RH  040%=      5-min Rain = 0
KSM2 242043Z 13004KT 31/15 A2997 RMK A01 T03060151  RH  039%=      5-min Rain = 0
KSM2 242044Z 20001KT 30/15 A2997 RMK A01 T03030152  RH  040%=      5-min Rain = 0
KSM2 242045Z 14003KT 30/16 A2997 RMK A01 T03020156  RH  041%=      5-min Rain = 0
KSM2 242046Z 11004G13KT 30/16 A2997 RMK A01 T03040158  RH  041%=      5-min Rain = 0
KSM2 242047Z 10011KT 31/15 A2997 RMK A01 T03060153  RH  040%=      5-min Rain = 0
KSM2 242048Z 10010KT 31/15 A2997 RMK A01 T03080154  RH  039%=      5-min Rain = 0
KSM2 242049Z 08009KT 31/16 A2997 RMK A01 T03100157  RH  040%=      5-min Rain = 0
KSM2 242050Z 08010KT 31/16 A2997 RMK A01 T03100157  RH  040%=      5-min Rain = 0
KSM2 242051Z 09009KT 31/16 A2997 RMK A01 T03120157  RH  039%=      5-min Rain = 0
KSM2 242052Z 08007KT 31/16 A2997 RMK A01 T03130159  RH  039%=      5-min Rain = 0
KSM2 242053Z 10006KT 32/16 A2996 RMK A01 T03160157  RH  038%=      5-min Rain = 0
KSM2 242054Z 08008KT 32/16 A2996 RMK A01 T03160161  RH  039%=      5-min Rain = 0
KSM2 242055Z 05010KT 32/16 A2996 RMK A01 T03170158  RH  038%=      5-min Rain = 0
KSM2 242056Z 06006KT 31/16 A2996 RMK A01 T03140156  RH  039%=      5-min Rain = 0
KSM2 242057Z 09004KT 31/16 A2997 RMK A01 T03120157  RH  039%=      5-min Rain = 0
KSM2 242058Z 16006KT 31/16 A2997 RMK A01 T03100157  RH  040%=      5-min Rain = 0
KSM2 242059Z 16007KT 31/15 A2996 RMK A01 T03070154  RH  040%=      5-min Rain = 0
KSM2 242100Z 18005KT 30/15 A2996 RMK A01 T03030151  RH  040%=      5-min Rain = 0
KSM2 242101Z 15004KT 30/15 A2996 RMK A01 T03010151  RH  040%=      5-min Rain = 0
KSM2 242102Z 13003KT 30/15 A2996 RMK A01 T02990149  RH  040%=      5-min Rain = 0
KSM2 242103Z 12003KT 30/15 A2996 RMK A01 T02990152  RH  041%=      5-min Rain = 0
KSM2 242104Z 10007KT 30/16 A2996 RMK A01 T03010158  RH  042%=      5-min Rain = 0
KSM2 242105Z 11006KT 30/16 A2996 RMK A01 T03040157  RH  041%=      5-min Rain = 0
KSM2 242106Z 12004KT 30/16 A2996 RMK A01 T03040158  RH  041%=      5-min Rain = 0
KSM2 242107Z 10008G14KT 30/15 A2996 RMK A01 T03030153  RH  040%=      5-min Rain = 0
KSM2 242108Z 10013KT 30/16 A2996 RMK A01 T03010155  RH  041%=      5-min Rain = 0
KSM2 242109Z 11009KT 30/15 A2996 RMK A01 T02990154  RH  042%=      5-min Rain = 0
KSM2 242110Z 12005KT 30/16 A2996 RMK A01 T02980157  RH  042%=      5-min Rain = 0
KSM2 242111Z 11008KT 30/16 A2996 RMK A01 T02970155  RH  042%=      5-min Rain = 0
KSM2 242112Z 11011KT 30/16 A2996 RMK A01 T02990157  RH  042%=      5-min Rain = 0
KSM2 242113Z 11009KT 30/16 A2996 RMK A01 T03020157  RH  041%=      5-min Rain = 0
KSM2 242114Z 08009KT 30/16 A2996 RMK A01 T03030156  RH  041%=      5-min Rain = 0
KSM2 242115Z 09008KT 30/16 A2996 RMK A01 T03010158  RH  042%=      5-min Rain = 0
KSM2 242116Z 11010KT 30/16 A2996 RMK A01 T03000157  RH  042%=      5-min Rain = 0
KSM2 242117Z 10006KT 30/16 A2996 RMK A01 T02980156  RH  042%=      5-min Rain = 0
KSM2 242118Z 07004KT 30/16 A2995 RMK A01 T02970155  RH  042%=      5-min Rain = 0
KSM2 242119Z 09004KT 30/16 A2995 RMK A01 T02980162  RH  044%=      5-min Rain = 0
KSM2 242120Z 09006KT 30/16 A2995 RMK A01 T03030163  RH  043%=      5-min Rain = 0
KSM2 242121Z 08008KT 31/16 A2995 RMK A01 T03080164  RH  042%=      5-min Rain = 0
KSM2 242122Z 08008KT 31/16 A2995 RMK A01 T03120162  RH  040%=      5-min Rain = 0
KSM2 242123Z 10010KT 31/16 A2995 RMK A01 T03140164  RH  040%=      5-min Rain = 0
KSM2 242124Z 10009KT 32/16 A2995 RMK A01 T03150159  RH  039%=      5-min Rain = 0
KSM2 242125Z 14010KT 31/16 A2995 RMK A01 T03140161  RH  040%=      5-min Rain = 0
KSM2 242126Z 13006KT 31/16 A2995 RMK A01 T03140161  RH  040%=      5-min Rain = 0
KSM2 242127Z 10011KT 32/16 A2995 RMK A01 T03150160  RH  039%=      5-min Rain = 0
KSM2 242128Z 11012KT 32/16 A2995 RMK A01 T03170158  RH  038%=      5-min Rain = 0
KSM2 242129Z 11012KT 32/16 A2995 RMK A01 T03160156  RH  038%=      5-min Rain = 0
KSM2 242130Z 10012KT 32/16 A2995 RMK A01 T03150157  RH  038%=      5-min Rain = 0
KSM2 242131Z 09010KT 32/16 A2995 RMK A01 T03150157  RH  039%=      5-min Rain = 0
KSM2 242132Z 09008KT 31/16 A2995 RMK A01 T03140157  RH  039%=      5-min Rain = 0
KSM2 242133Z 09007KT 31/16 A2995 RMK A01 T03130158  RH  039%=      5-min Rain = 0
KSM2 242134Z 08007KT 31/16 A2995 RMK A01 T03130158  RH  039%=      5-min Rain = 0
KSM2 242135Z 09007KT 31/16 A2995 RMK A01 T03140156  RH  039%=      5-min Rain = 0
KSM2 242136Z 07005KT 31/16 A2995 RMK A01 T03130156  RH  039%=      5-min Rain = 0
KSM2 242137Z 12005KT 31/16 A2995 RMK A01 T03120157  RH  039%=      5-min Rain = 0
KSM2 242138Z 11009G14KT 31/16 A2995 RMK A01 T03100157  RH  040%=      5-min Rain = 0
KSM2 242139Z 11010G15KT 31/16 A2995 RMK A01 T03060158  RH  041%=      5-min Rain = 0
KSM2 242140Z 10014KT 31/16 A2995 RMK A01 T03060160  RH  041%=      5-min Rain = 0
KSM2 242141Z 10010KT 31/16 A2995 RMK A01 T03090160  RH  041%=      5-min Rain = 0
KSM2 242142Z 11010KT 31/16 A2995 RMK A01 T03100160  RH  040%=      5-min Rain = 0
KSM2 242143Z 10009KT 31/16 A2995 RMK A01 T03110158  RH  040%=      5-min Rain = 0
KSM2 242144Z 09008KT 31/16 A2995 RMK A01 T03110160  RH  040%=      5-min Rain = 0
KSM2 242145Z 08005KT 31/16 A2994 RMK A01 T03130160  RH  040%=      5-min Rain = 0
KSM2 242146Z 11005KT 31/16 A2994 RMK A01 T03140158  RH  039%=      5-min Rain = 0
KSM2 242147Z 11006KT 31/16 A2994 RMK A01 T03140156  RH  039%=      5-min Rain = 0
KSM2 242148Z 09008G14KT 31/16 A2994 RMK A01 T03130164  RH  041%=      5-min Rain = 0
KSM2 242149Z 10011KT 32/16 A2994 RMK A01 T03160161  RH  039%=      5-min Rain = 0
KSM2 242150Z 11009KT 32/16 A2994 RMK A01 T03160161  RH  039%=      5-min Rain = 0
KSM2 242151Z 10007KT 32/16 A2994 RMK A01 T03150162  RH  040%=      5-min Rain = 0
KSM2 242152Z 09010KT 32/16 A2994 RMK A01 T03160160  RH  039%=      5-min Rain = 0
KSM2 242153Z 09009KT 32/16 A2994 RMK A01 T03160163  RH  040%=      5-min Rain = 0
KSM2 242154Z 09011G16KT 32/16 A2994 RMK A01 T03170159  RH  039%=      5-min Rain = 0
KSM2 242155Z 12009KT 32/16 A2994 RMK A01 T03170159  RH  038%=      5-min Rain = 0
KSM2 242156Z 12007KT 32/16 A2994 RMK A01 T03150158  RH  039%=      5-min Rain = 0
KSM2 242157Z 11011KT 32/16 A2994 RMK A01 T03150161  RH  040%=      5-min Rain = 0
KSM2 242158Z 11009KT 32/16 A2994 RMK A01 T03160156  RH  038%=      5-min Rain = 0
KSM2 242159Z 09008KT 32/16 A2994 RMK A01 T03150161  RH  040%=      5-min Rain = 0
KSM2 242200Z 07007KT 32/16 A2993 RMK A01 T03150158  RH  039%=      5-min Rain = 0
KSM2 242201Z 09013KT 32/16 A2993 RMK A01 T03170159  RH  039%=      5-min Rain = 0
KSM2 242202Z 09013KT 32/16 A2993 RMK A01 T03180157  RH  038%=      5-min Rain = 0
KSM2 242203Z 10007G13KT 32/16 A2993 RMK A01 T03170158  RH  038%=      5-min Rain = 0
KSM2 242204Z 12007KT 31/16 A2993 RMK A01 T03140157  RH  039%=      5-min Rain = 0
KSM2 242205Z 10007KT 31/16 A2993 RMK A01 T03120155  RH  039%=      5-min Rain = 0
KSM2 242206Z 09007KT 31/16 A2993 RMK A01 T03110158  RH  040%=      5-min Rain = 0
KSM2 242207Z 09007KT 31/16 A2993 RMK A01 T03130157  RH  039%=      5-min Rain = 0
KSM2 242208Z 10011KT 32/16 A2993 RMK A01 T03150158  RH  039%=      5-min Rain = 0
KSM2 242209Z 10010KT 32/16 A2993 RMK A01 T03160161  RH  039%=      5-min Rain = 0
KSM2 242210Z 11010KT 32/16 A2993 RMK A01 T03180159  RH  038%=      5-min Rain = 0
KSM2 242211Z 10010KT 32/16 A2993 RMK A01 T03180162  RH  039%=      5-min Rain = 0
KSM2 242212Z 09010KT 32/16 A2993 RMK A01 T03190162  RH  039%=      5-min Rain = 0
KSM2 242213Z 09006KT 32/16 A2993 RMK A01 T03200158  RH  038%=      5-min Rain = 0
KSM2 242214Z 09004KT 32/16 A2993 RMK A01 T03200159  RH  038%=      5-min Rain = 0
KSM2 242215Z 12009KT 32/16 A2993 RMK A01 T03190159  RH  038%=      5-min Rain = 0
KSM2 242216Z 10010KT 32/16 A2993 RMK A01 T03180155  RH  038%=      5-min Rain = 0
KSM2 242217Z 10007KT 32/16 A2993 RMK A01 T03150158  RH  039%=      5-min Rain = 0
KSM2 242218Z 12005KT 32/16 A2993 RMK A01 T03160157  RH  038%=      5-min Rain = 0
KSM2 242219Z 14003KT 32/16 A2993 RMK A01 T03150155  RH  038%=      5-min Rain = 0
KSM2 242220Z 13004KT 31/15 A2992 RMK A01 T03130152  RH  038%=      5-min Rain = 0
KSM2 242221Z 09003KT 31/15 A2992 RMK A01 T03110151  RH  038%=      5-min Rain = 0
KSM2 242222Z 09004KT 31/16 A2992 RMK A01 T03110155  RH  039%=      5-min Rain = 0
KSM2 242223Z 09003KT 31/15 A2992 RMK A01 T03120153  RH  038%=      5-min Rain = 0
KSM2 242224Z 09006KT 31/16 A2992 RMK A01 T03130156  RH  039%=      5-min Rain = 0
KSM2 242225Z 09009KT 32/16 A2992 RMK A01 T03150159  RH  039%=      5-min Rain = 0
KSM2 242226Z 09010KT 32/16 A2992 RMK A01 T03190159  RH  038%=      5-min Rain = 0
KSM2 242227Z 08011KT 32/16 A2992 RMK A01 T03200158  RH  038%=      5-min Rain = 0
KSM2 242228Z 09011KT 32/16 A2992 RMK A01 T03160155  RH  038%=      5-min Rain = 0
KSM2 242229Z 08007KT 31/15 A2992 RMK A01 T03110154  RH  039%=      5-min Rain = 0
KSM2 242230Z 09004KT 31/16 A2992 RMK A01 T03100157  RH  040%=      5-min Rain = 0
KSM2 242231Z 11007KT 31/16 A2992 RMK A01 T03100157  RH  040%=      5-min Rain = 0
KSM2 242232Z 12007KT 31/16 A2992 RMK A01 T03120156  RH  039%=      5-min Rain = 0
KSM2 242233Z 13007KT 31/15 A2992 RMK A01 T03120153  RH  038%=      5-min Rain = 0
KSM2 242234Z 13009KT 31/15 A2992 RMK A01 T03130154  RH  038%=      5-min Rain = 0
KSM2 242235Z 11011KT 31/16 A2992 RMK A01 T03140155  RH  038%=      5-min Rain = 0
KSM2 242236Z 11007KT 31/16 A2992 RMK A01 T03140155  RH  038%=      5-min Rain = 0
KSM2 242237Z 11007KT 31/16 A2991 RMK A01 T03130155  RH  039%=      5-min Rain = 0
KSM2 242238Z 11008KT 31/16 A2991 RMK A01 T03140157  RH  039%=      5-min Rain = 0
KSM2 242239Z 08008KT 32/16 A2991 RMK A01 T03150160  RH  039%=      5-min Rain = 0
KSM2 242240Z 08009KT 32/16 A2991 RMK A01 T03180157  RH  038%=      5-min Rain = 0
KSM2 242241Z 09010KT 32/16 A2991 RMK A01 T03180156  RH  038%=      5-min Rain = 0
KSM2 242242Z 10009KT 32/16 A2991 RMK A01 T03170158  RH  038%=      5-min Rain = 0
KSM2 242243Z 12010KT 32/15 A2991 RMK A01 T03150154  RH  038%=      5-min Rain = 0
KSM2 242244Z 12009KT 31/15 A2991 RMK A01 T03110150  RH  038%=      5-min Rain = 0
KSM2 242245Z 09009KT 31/15 A2991 RMK A01 T03070150  RH  039%=      5-min Rain = 0
KSM2 242246Z 08007KT 31/15 A2991 RMK A01 T03050147  RH  038%=      5-min Rain = 0
KSM2 242247Z 09004KT 30/15 A2991 RMK A01 T03040146  RH  038%=      5-min Rain = 0
KSM2 242248Z 09003KT 30/15 A2991 RMK A01 T03020147  RH  039%=      5-min Rain = 0
KSM2 242249Z 11002KT 30/15 A2991 RMK A01 T03020149  RH  039%=      5-min Rain = 0
KSM2 242250Z 09005KT 30/15 A2991 RMK A01 T03020151  RH  040%=      5-min Rain = 0
KSM2 242251Z 09009KT 30/15 A2991 RMK A01 T03040153  RH  040%=      5-min Rain = 0
KSM2 242252Z 10008KT 31/15 A2991 RMK A01 T03080149  RH  038%=      5-min Rain = 0
KSM2 242253Z 10008KT 31/15 A2991 RMK A01 T03100150  RH  038%=      5-min Rain = 0
KSM2 242254Z 12004KT 31/15 A2991 RMK A01 T03120151  RH  038%=      5-min Rain = 0
KSM2 242255Z 13004KT 32/15 A2991 RMK A01 T03150154  RH  038%=      5-min Rain = 0
KSM2 242256Z 12004KT 32/15 A2991 RMK A01 T03180152  RH  037%=      5-min Rain = 0
KSM2 242257Z 11003KT 32/15 A2991 RMK A01 T03180151  RH  036%=      5-min Rain = 0
KSM2 242258Z 09007KT 32/15 A2991 RMK A01 T03170154  RH  037%=      5-min Rain = 0
KSM2 242259Z 08006KT 32/15 A2991 RMK A01 T03160151  RH  037%=      5-min Rain = 0
KSM2 242300Z 09004KT 32/15 A2991 RMK A01 T03150151  RH  037%=      5-min Rain = 0
KSM2 242301Z 14005KT 32/15 A2991 RMK A01 T03160147  RH  036%=      5-min Rain = 0
KSM2 242302Z 13007KT 32/15 A2991 RMK A01 T03160146  RH  036%=      5-min Rain = 0
KSM2 242303Z 13005KT 32/15 A2991 RMK A01 T03150147  RH  036%=      5-min Rain = 0
KSM2 242304Z 14007KT 31/15 A2991 RMK A01 T03140147  RH  036%=      5-min Rain = 0
KSM2 242305Z 13008KT 31/15 A2991 RMK A01 T03140146  RH  036%=      5-min Rain = 0
KSM2 242306Z 15004KT 31/15 A2991 RMK A01 T03140148  RH  037%=      5-min Rain = 0
KSM2 242307Z 13003KT 31/15 A2991 RMK A01 T03120147  RH  037%=      5-min Rain = 0
KSM2 242308Z 10007KT 31/15 A2991 RMK A01 T03110154  RH  039%=      5-min Rain = 0
KSM2 242309Z 09007KT 31/16 A2991 RMK A01 T03100155  RH  039%=      5-min Rain = 0
KSM2 242310Z 09008KT 31/16 A2991 RMK A01 T03100155  RH  039%=      5-min Rain = 0
KSM2 242311Z 08007KT 31/16 A2991 RMK A01 T03110155  RH  039%=      5-min Rain = 0
KSM2 242312Z 08006KT 31/16 A299 RMK A01 T03130155  RH  038%=      5-min Rain = 0
KSM2 242313Z 07004KT 31/15 A299 RMK A01 T03130153  RH  038%=      5-min Rain = 0
KSM2 242314Z 09004KT 31/16 A299 RMK A01 T03140157  RH  039%=      5-min Rain = 0
KSM2 242315Z 08006KT 31/16 A299 RMK A01 T03140159  RH  039%=      5-min Rain = 0
KSM2 242316Z 07007KT 31/16 A299 RMK A01 T03140157  RH  039%=      5-min Rain = 0
KSM2 242317Z 09008KT 31/15 A299 RMK A01 T03110153  RH  038%=      5-min Rain = 0
KSM2 242318Z 10008KT 31/15 A299 RMK A01 T03080150  RH  038%=      5-min Rain = 0
KSM2 242319Z 08008KT 31/15 A299 RMK A01 T03060153  RH  040%=      5-min Rain = 0
KSM2 242320Z 08007KT 30/15 A299 RMK A01 T03040151  RH  039%=      5-min Rain = 0
KSM2 242321Z 09010KT 30/15 A299 RMK A01 T03040152  RH  040%=      5-min Rain = 0
KSM2 242322Z 08009KT 30/15 A299 RMK A01 T03030150  RH  039%=      5-min Rain = 0
KSM2 242323Z 06008KT 31/15 A299 RMK A01 T03050151  RH  039%=      5-min Rain = 0
KSM2 242324Z 05006KT 31/15 A299 RMK A01 T03070151  RH  039%=      5-min Rain = 0
KSM2 242325Z 05005KT 31/15 A299 RMK A01 T03110153  RH  038%=      5-min Rain = 0
KSM2 242326Z 05005KT 31/15 A299 RMK A01 T03130152  RH  038%=      5-min Rain = 0
KSM2 242327Z 04006KT 31/16 A299 RMK A01 T03130156  RH  039%=      5-min Rain = 0
KSM2 242328Z 05005KT 31/16 A2989 RMK A01 T03140159  RH  039%=      5-min Rain = 0
KSM2 242329Z 06007KT 32/16 A2989 RMK A01 T03160160  RH  039%=      5-min Rain = 0
KSM2 242330Z 06010KT 32/16 A2989 RMK A01 T03150158  RH  039%=      5-min Rain = 0
KSM2 242331Z 05009KT 31/16 A2989 RMK A01 T03110155  RH  039%=      5-min Rain = 0
KSM2 242332Z 07008KT 31/16 A2989 RMK A01 T03100157  RH  040%=      5-min Rain = 0
KSM2 242333Z 07011KT 31/16 A2989 RMK A01 T03110156  RH  039%=      5-min Rain = 0
KSM2 242334Z 08010KT 31/16 A2989 RMK A01 T03130156  RH  039%=      5-min Rain = 0
KSM2 242335Z 09011KT 31/16 A2989 RMK A01 T03140157  RH  039%=      5-min Rain = 0
KSM2 242336Z 08008KT 31/16 A2989 RMK A01 T03140157  RH  039%=      5-min Rain = 0
KSM2 242337Z 08009KT 31/16 A2989 RMK A01 T03140157  RH  039%=      5-min Rain = 0
KSM2 242338Z 08007KT 31/16 A2989 RMK A01 T03140159  RH  039%=      5-min Rain = 0
KSM2 242339Z 08008KT 32/16 A2989 RMK A01 T03150159  RH  039%=      5-min Rain = 0
KSM2 242340Z 09008KT 32/16 A2989 RMK A01 T03160156  RH  038%=      5-min Rain = 0
KSM2 242341Z 08006KT 32/16 A2989 RMK A01 T03150157  RH  039%=      5-min Rain = 0
KSM2 242342Z 06009KT 31/15 A2989 RMK A01 T03130154  RH  038%=      5-min Rain = 0
KSM2 242343Z 05004KT 31/15 A2989 RMK A01 T03100153  RH  039%=      5-min Rain = 0
KSM2 242344Z 06004KT 31/15 A2989 RMK A01 T03080154  RH  039%=      5-min Rain = 0
KSM2 242345Z 07003KT 31/16 A2989 RMK A01 T03070156  RH  040%=      5-min Rain = 0
KSM2 242346Z 07003KT 31/15 A2989 RMK A01 T03050154  RH  040%=      5-min Rain = 0
KSM2 242347Z 04008KT 31/15 A2989 RMK A01 T03050154  RH  040%=      5-min Rain = 0
KSM2 242348Z 02006KT 31/15 A2989 RMK A01 T03060149  RH  039%=      5-min Rain = 0
KSM2 242349Z 00005KT 31/15 A2988 RMK A01 T03070149  RH  038%=      5-min Rain = 0
KSM2 242350Z 34006KT 31/15 A2988 RMK A01 T03080150  RH  038%=      5-min Rain = 0
KSM2 242351Z 35006KT 31/15 A2988 RMK A01 T03100150  RH  038%=      5-min Rain = 0
KSM2 242352Z 01005KT 31/15 A2988 RMK A01 T03110150  RH  038%=      5-min Rain = 0
KSM2 242353Z 08005KT 31/16 A2988 RMK A01 T03110157  RH  040%=      5-min Rain = 0
KSM2 242354Z 07004KT 31/16 A2988 RMK A01 T03130158  RH  039%=      5-min Rain = 0
KSM2 242355Z 05007KT 32/16 A2988 RMK A01 T03150157  RH  039%=      5-min Rain = 0
KSM2 242356Z 04006KT 32/15 A2988 RMK A01 T03160153  RH  038%=      5-min Rain = 0
KSM2 242357Z 04005KT 32/15 A2988 RMK A01 T03150153  RH  037%=      5-min Rain = 0
KSM2 242358Z 06005KT 32/16 A2988 RMK A01 T03160156  RH  038%=      5-min Rain = 0
KSM2 242359Z 08008KT 32/16 A2988 RMK A01 T03150160  RH  039%=      5-min Rain = 0
KSM2 250000Z 08008KT 32/16 A2988 RMK A01 T03150162  RH  040%=      5-min Rain = 0
KSM2 250001Z 09008KT 32/16 A2988 RMK A01 T03150161  RH  040%=      5-min Rain = 0
KSM2 250002Z 08008KT 32/16 A2988 RMK A01 T03150162  RH  040%=      5-min Rain = 0
KSM2 250003Z 07006KT 32/16 A2988 RMK A01 T03150159  RH  039%=      5-min Rain = 0
KSM2 250004Z 10008KT 31/16 A2988 RMK A01 T03140160  RH  040%=      5-min Rain = 0
KSM2 250005Z 10009KT 31/16 A2988 RMK A01 T03130161  RH  040%=      5-min Rain = 0
KSM2 250006Z 08010KT 31/16 A2988 RMK A01 T03130162  RH  040%=      5-min Rain = 0
KSM2 250007Z 10009KT 31/16 A2988 RMK A01 T03140160  RH  040%=      5-min Rain = 0
KSM2 250008Z 11007KT 31/16 A2988 RMK A01 T03120159  RH  040%=      5-min Rain = 0
KSM2 250009Z 09008KT 31/16 A2988 RMK A01 T03110162  RH  041%=      5-min Rain = 0
KSM2 250010Z 08007KT 31/16 A2988 RMK A01 T03110162  RH  041%=      5-min Rain = 0
KSM2 250011Z 09006KT 31/16 A2988 RMK A01 T03120161  RH  040%=      5-min Rain = 0
KSM2 250012Z 04003KT 31/16 A2988 RMK A01 T03120160  RH  040%=      5-min Rain = 0
KSM2 250013Z 07004KT 31/16 A2988 RMK A01 T03120160  RH  040%=      5-min Rain = 0
KSM2 250014Z 09004KT 31/16 A2988 RMK A01 T03130164  RH  041%=      5-min Rain = 0
KSM2 250015Z 08007KT 31/16 A2988 RMK A01 T03140162  RH  040%=      5-min Rain = 0
KSM2 250016Z 10011KT 31/16 A2988 RMK A01 T03130162  RH  040%=      5-min Rain = 0
KSM2 250017Z 10010KT 31/16 A2988 RMK A01 T03100159  RH  040%=      5-min Rain = 0
KSM2 250018Z 10009KT 31/16 A2988 RMK A01 T03080160  RH  041%=      5-min Rain = 0
KSM2 250019Z 08006KT 31/16 A2988 RMK A01 T03080160  RH  041%=      5-min Rain = 0
KSM2 250020Z 06007G13KT 31/16 A2988 RMK A01 T03100162  RH  041%=      5-min Rain = 0
KSM2 250021Z 10011G19KT 31/16 A2988 RMK A01 T03110159  RH  040%=      5-min Rain = 0
KSM2 250022Z 12009KT 31/16 A2988 RMK A01 T03120161  RH  040%=      5-min Rain = 0
KSM2 250023Z 11008KT 31/17 A2989 RMK A01 T03120165  RH  041%=      5-min Rain = 0
KSM2 250024Z 11010KT 31/16 A2989 RMK A01 T03110164  RH  041%=      5-min Rain = 0
KSM2 250025Z 10012KT 31/16 A2989 RMK A01 T03110164  RH  041%=      5-min Rain = 0
KSM2 250026Z 10014KT 31/17 A2988 RMK A01 T03090168  RH  043%=      5-min Rain = 0
KSM2 250027Z 09014G19KT 31/17 A2988 RMK A01 T03080170  RH  044%=      5-min Rain = 0
KSM2 250028Z 09017G22KT 31/17 A2988 RMK A01 T03080174  RH  045%=      5-min Rain = 0
KSM2 250029Z 09018KT 30/18 A2988 RMK A01 T03020179  RH  048%=      5-min Rain = 0
KSM2 250030Z 09017KT 30/18 A2988 RMK A01 T02960179  RH  049%=      5-min Rain = 0
KSM2 250031Z 09017KT 30/18 A2988 RMK A01 T02950178  RH  049%=      5-min Rain = 0
KSM2 250032Z 08017KT 30/18 A2988 RMK A01 T02970179  RH  049%=      5-min Rain = 0
KSM2 250033Z 09017KT 30/18 A2988 RMK A01 T02960178  RH  049%=      5-min Rain = 0
KSM2 250034Z 09015KT 29/18 A2988 RMK A01 T02930175  RH  049%=      5-min Rain = 0
KSM2 250035Z 08015KT 29/18 A2988 RMK A01 T02920175  RH  049%=      5-min Rain = 0
KSM2 250036Z 09013KT 29/18 A2988 RMK A01 T02920175  RH  049%=      5-min Rain = 0
KSM2 250037Z 08015KT 29/18 A2988 RMK A01 T02930175  RH  049%=      5-min Rain = 0
KSM2 250038Z 07013G19KT 29/18 A2988 RMK A01 T02940175  RH  049%=      5-min Rain = 0
KSM2 250039Z 07019KT 29/16 A2988 RMK A01 T02930163  RH  045%=      5-min Rain = 0
KSM2 250040Z 08017KT 29/14 A2988 RMK A01 T02870135  RH  039%=      5-min Rain = 0
KSM2 250041Z 08013KT 28/13 A2988 RMK A01 T02800132  RH  040%=      5-min Rain = 0
KSM2 250042Z 08016KT 28/13 A2988 RMK A01 T02770131  RH  041%=      5-min Rain = 0
KSM2 250043Z 09016KT 28/13 A2989 RMK A01 T02770128  RH  040%=      5-min Rain = 0
KSM2 250044Z 08019KT 28/13 A2989 RMK A01 T02750126  RH  040%=      5-min Rain = 0
KSM2 250045Z 08017KT 27/13 A2989 RMK A01 T02720125  RH  040%=      5-min Rain = 0
KSM2 250046Z 08016KT 27/13 A2989 RMK A01 T02700128  RH  042%=      5-min Rain = 0
KSM2 250047Z 09016KT 27/13 A2989 RMK A01 T02690130  RH  042%=      5-min Rain = 0
KSM2 250048Z 09017KT 27/13 A2989 RMK A01 T02690130  RH  042%=      5-min Rain = 0
KSM2 250049Z 09015KT 27/13 A2989 RMK A01 T02690131  RH  042%=      5-min Rain = 0
KSM2 250050Z 09016KT 27/13 A2989 RMK A01 T02700133  RH  043%=      5-min Rain = 0
KSM2 250051Z 09015KT 27/13 A299 RMK A01 T02720134  RH  043%=      5-min Rain = 0
KSM2 250052Z 09018KT 27/13 A299 RMK A01 T02730132  RH  042%=      5-min Rain = 0
KSM2 250053Z 10014KT 27/13 A299 RMK A01 T02740133  RH  042%=      5-min Rain = 0
KSM2 250054Z 10017KT 27/13 A2991 RMK A01 T02740134  RH  042%=      5-min Rain = 0
KSM2 250055Z 11017KT 28/13 A2991 RMK A01 T02750134  RH  042%=      5-min Rain = 0
KSM2 250056Z 11020KT 27/13 A2992 RMK A01 T02740130  RH  041%=      5-min Rain = 0
KSM2 250057Z 11020KT 27/12 A2992 RMK A01 T02710120  RH  039%=      5-min Rain = 0
KSM2 250058Z 11019KT 27/12 A2992 RMK A01 T02660123  RH  041%=      5-min Rain = 0
KSM2 250059Z 11017KT 26/13 A2992 RMK A01 T02640127  RH  043%=      5-min Rain = 0
KSM2 250100Z 11024KT 27/14 A2992 RMK A01 T02650136  RH  045%=      5-min Rain = 0
KSM2 250101Z 10025G33KT 26/15 A2992 RMK A01 T02620146  RH  049%=      5-min Rain = 0
KSM2 250102Z 11027KT 26/15 A2993 RMK A01 T02560150  RH  052%=      5-min Rain = 0
KSM2 250103Z 11030KT 25/15 A2992 RMK A01 T02510153  RH  054%=      5-min Rain = 0
KSM2 250104Z 10028KT 25/16 A2992 RMK A01 T02460158  RH  058%=      5-min Rain = 0
KSM2 250105Z 10024KT 24/16 A2993 RMK A01 T02440160  RH  059%=      5-min Rain = 0
KSM2 250106Z 11026G32KT 24/16 A2993 RMK A01 T02440158  RH  059%=      5-min Rain = 0
KSM2 250107Z 10030G35KT 24/15 A2993 RMK A01 T02420154  RH  058%=      5-min Rain = 0
KSM2 250108Z 11029KT 24/15 A2993 RMK A01 T02380152  RH  058%=      5-min Rain = 0
KSM2 250109Z 10031KT 24/15 A2993 RMK A01 T02360151  RH  059%=      5-min Rain = 0
KSM2 250110Z 10029KT 23/15 A2993 RMK A01 T02340152  RH  060%=      5-min Rain = 0
KSM2 250111Z 11025G30KT 23/15 A2993 RMK A01 T02330152  RH  060%=      5-min Rain = 0
KSM2 250112Z 10024G29KT 23/15 A2993 RMK A01 T02320153  RH  061%=      5-min Rain = 0
KSM2 250113Z 11021G29KT 23/15 A2993 RMK A01 T02320153  RH  061%=      5-min Rain = 0
KSM2 250114Z 11019G25KT 23/15 A2993 RMK A01 T02320151  RH  060%=      5-min Rain = 0
KSM2 250115Z 11020G25KT 23/15 A2993 RMK A01 T02310151  RH  060%=      5-min Rain = 0
KSM2 250116Z 11016G23KT 23/15 A2993 RMK A01 T02320151  RH  060%=      5-min Rain = 0
KSM2 250117Z 11022KT 23/15 A2993 RMK A01 T02320151  RH  060%=      5-min Rain = 0
KSM2 250118Z 11021G26KT 23/15 A2993 RMK A01 T02320150  RH  060%=      5-min Rain = 0
KSM2 250119Z 10020KT 23/15 A2993 RMK A01 T02320149  RH  060%=      5-min Rain = 0
KSM2 250120Z 10021KT 23/15 A2993 RMK A01 T02330149  RH  059%=      5-min Rain = 0
KSM2 250121Z 10020KT 23/15 A2993 RMK A01 T02330149  RH  059%=      5-min Rain = 0
KSM2 250122Z 11016G21KT 23/15 A2993 RMK A01 T02330150  RH  059%=      5-min Rain = 0
KSM2 250123Z 11016G22KT 23/15 A2993 RMK A01 T02340150  RH  059%=      5-min Rain = 0
KSM2 250124Z 11013KT 23/15 A2993 RMK A01 T02340150  RH  059%=      5-min Rain = 0
KSM2 250125Z 11014G19KT 23/15 A2993 RMK A01 T02340150  RH  059%=      5-min Rain = 0
KSM2 250126Z 11016G21KT 24/15 A2993 RMK A01 T02350147  RH  058%=      5-min Rain = 0
KSM2 250127Z 11015KT 24/14 A2993 RMK A01 T02370144  RH  056%=      5-min Rain = 0
KSM2 250128Z 11016G21KT 24/14 A2993 RMK A01 T02390143  RH  055%=      5-min Rain = 0
KSM2 250129Z 10017KT 24/14 A2993 RMK A01 T02390141  RH  054%=      5-min Rain = 0
KSM2 250130Z 10020KT 24/14 A2992 RMK A01 T02390142  RH  054%=      5-min Rain = 0
KSM2 250131Z 11019G24KT 24/14 A2993 RMK A01 T02390144  RH  055%=      5-min Rain = 0
KSM2 250132Z 11018KT 24/15 A2992 RMK A01 T02380146  RH  056%=      5-min Rain = 0
KSM2 250133Z 11019KT 24/15 A2992 RMK A01 T02390147  RH  056%=      5-min Rain = 0
KSM2 250134Z 11020KT 24/15 A2992 RMK A01 T02390147  RH  056%=      5-min Rain = 0
KSM2 250135Z 10018KT 24/15 A2992 RMK A01 T02400149  RH  057%=      5-min Rain = 0
KSM2 250136Z 11016KT 24/15 A2992 RMK A01 T02400150  RH  057%=      5-min Rain = 0
KSM2 250137Z 11017KT 24/15 A2992 RMK A01 T02400150  RH  057%=      5-min Rain = 0
KSM2 250138Z 11016KT 24/15 A2992 RMK A01 T02410150  RH  057%=      5-min Rain = 0
KSM2 250139Z 11013G18KT 24/15 A2993 RMK A01 T02420151  RH  057%=      5-min Rain = 0
KSM2 250140Z 10017KT 24/15 A2993 RMK A01 T02420153  RH  057%=      5-min Rain = 0
KSM2 250141Z 10017KT 24/16 A2992 RMK A01 T02430156  RH  058%=      5-min Rain = 0
KSM2 250142Z 11015KT 24/16 A2993 RMK A01 T02430158  RH  059%=      5-min Rain = 0
KSM2 250143Z 11014KT 24/16 A2993 RMK A01 T02440159  RH  059%=      5-min Rain = 0
KSM2 250144Z 11015G20KT 24/16 A2992 RMK A01 T02440159  RH  059%=      5-min Rain = 0
KSM2 250145Z 10015KT 25/16 A2992 RMK A01 T02450160  RH  059%=      5-min Rain = 0
KSM2 250146Z 10016KT 25/16 A2992 RMK A01 T02450160  RH  059%=      5-min Rain = 0
KSM2 250147Z 10014KT 25/16 A2992 RMK A01 T02450161  RH  059%=      5-min Rain = 0
KSM2 250148Z 10015KT 24/16 A2992 RMK A01 T02440161  RH  060%=      5-min Rain = 0
KSM2 250149Z 10012KT 24/16 A2992 RMK A01 T02430162  RH  060%=      5-min Rain = 0
KSM2 250150Z 10013KT 24/16 A2992 RMK A01 T02430162  RH  060%=      5-min Rain = 0
KSM2 250151Z 10013KT 24/16 A2992 RMK A01 T02430162  RH  061%=      5-min Rain = 0
KSM2 250152Z 10014KT 24/16 A2992 RMK A01 T02420162  RH  061%=      5-min Rain = 0
KSM2 250153Z 10016KT 24/16 A2992 RMK A01 T02430164  RH  062%=      5-min Rain = 0
KSM2 250154Z 11016KT 24/17 A2992 RMK A01 T02420167  RH  063%=      5-min Rain = 0
KSM2 250155Z 10015KT 24/17 A2992 RMK A01 T02410169  RH  064%=      5-min Rain = 0
KSM2 250156Z 11013KT 24/17 A2992 RMK A01 T02410170  RH  064%=      5-min Rain = 0
KSM2 250157Z 11015KT 24/17 A2992 RMK A01 T02410170  RH  064%=      5-min Rain = 0
KSM2 250158Z 11013KT 24/17 A2992 RMK A01 T02420171  RH  064%=      5-min Rain = 0
KSM2 250159Z 11013KT 24/17 A2992 RMK A01 T02420172  RH  065%=      5-min Rain = 0
KSM2 250200Z 11014KT 24/17 A2992 RMK A01 T02420173  RH  065%=      5-min Rain = 0
KSM2 250201Z 11013KT 24/17 A2992 RMK A01 T02420174  RH  066%=      5-min Rain = 0
KSM2 250202Z 10015KT 24/17 A2992 RMK A01 T02420174  RH  066%=      5-min Rain = 0
KSM2 250203Z 10016G21KT 24/17 A2992 RMK A01 T02420174  RH  066%=      5-min Rain = 0
KSM2 250204Z 10016KT 24/17 A2992 RMK A01 T02410174  RH  066%=      5-min Rain = 0
KSM2 250205Z 10017KT 24/17 A2992 RMK A01 T02410173  RH  066%=      5-min Rain = 0
KSM2 250206Z 10016KT 24/17 A2992 RMK A01 T02410173  RH  066%=      5-min Rain = 0
KSM2 250207Z 10013KT 24/17 A2992 RMK A01 T02400173  RH  066%=      5-min Rain = 0
KSM2 250208Z 11014KT 24/17 A2993 RMK A01 T02400173  RH  066%=      5-min Rain = 0
KSM2 250209Z 10014KT 24/17 A2993 RMK A01 T02400173  RH  066%=      5-min Rain = 0
KSM2 250210Z 11015KT 24/17 A2993 RMK A01 T02400173  RH  066%=      5-min Rain = 0
KSM2 250211Z 10016KT 24/17 A2993 RMK A01 T02400174  RH  066%=      5-min Rain = 0
KSM2 250212Z 10016KT 24/17 A2993 RMK A01 T02400174  RH  066%=      5-min Rain = 0
KSM2 250213Z 10014KT 24/17 A2993 RMK A01 T02400174  RH  066%=      5-min Rain = 0
KSM2 250214Z 10016KT 24/17 A2993 RMK A01 T02400173  RH  066%=      5-min Rain = 0
KSM2 250215Z 10014KT 24/17 A2992 RMK A01 T02400173  RH  066%=      5-min Rain = 0
KSM2 250216Z 10015KT 24/17 A2992 RMK A01 T02390173  RH  067%=      5-min Rain = 0
KSM2 250217Z 10015KT 24/17 A2992 RMK A01 T02380173  RH  067%=      5-min Rain = 0
KSM2 250218Z 11014KT 24/17 A2993 RMK A01 T02380173  RH  067%=      5-min Rain = 0
KSM2 250219Z 11015G20KT 24/17 A2993 RMK A01 T02380173  RH  067%=      5-min Rain = 0
KSM2 250220Z 11014G19KT 24/17 A2992 RMK A01 T02370172  RH  067%=      5-min Rain = 0
KSM2 250221Z 10014KT 24/17 A2992 RMK A01 T02370173  RH  067%=      5-min Rain = 0
KSM2 250222Z 11014G20KT 24/17 A2992 RMK A01 T02360173  RH  067%=      5-min Rain = 0
KSM2 250223Z 11016KT 24/17 A2992 RMK A01 T02360173  RH  068%=      5-min Rain = 0
KSM2 250224Z 11014KT 24/17 A2992 RMK A01 T02350174  RH  068%=      5-min Rain = 0
KSM2 250225Z 11015KT 24/17 A2992 RMK A01 T02350174  RH  068%=      5-min Rain = 0
KSM2 250226Z 11014KT 24/18 A2992 RMK A01 T02350175  RH  069%=      5-min Rain = 0
KSM2 250227Z 11012G17KT 24/18 A2992 RMK A01 T02350175  RH  069%=      5-min Rain = 0
KSM2 250228Z 11010G15KT 23/18 A2992 RMK A01 T02340176  RH  069%=      5-min Rain = 0
KSM2 250229Z 11011KT 23/18 A2993 RMK A01 T02340176  RH  070%=      5-min Rain = 0
KSM2 250230Z 11010KT 23/18 A2993 RMK A01 T02340177  RH  070%=      5-min Rain = 0
KSM2 250231Z 12010KT 23/18 A2993 RMK A01 T02340177  RH  070%=      5-min Rain = 0
KSM2 250232Z 12012KT 23/18 A2992 RMK A01 T02340178  RH  071%=      5-min Rain = 0
KSM2 250233Z 11012KT 23/18 A2992 RMK A01 T02330179  RH  071%=      5-min Rain = 0
KSM2 250234Z 11011KT 23/18 A2992 RMK A01 T02330179  RH  072%=      5-min Rain = 0
KSM2 250235Z 11013KT 23/18 A2992 RMK A01 T02330180  RH  072%=      5-min Rain = 0
KSM2 250236Z 11013KT 23/18 A2992 RMK A01 T02330181  RH  073%=      5-min Rain = 0
KSM2 250237Z 11013KT 23/18 A2992 RMK A01 T02330182  RH  073%=      5-min Rain = 0
KSM2 250238Z 11011KT 23/18 A2992 RMK A01 T02330182  RH  073%=      5-min Rain = 0
KSM2 250239Z 11013G18KT 23/18 A2992 RMK A01 T02330182  RH  073%=      5-min Rain = 0
KSM2 250240Z 11010KT 23/18 A2992 RMK A01 T02340183  RH  073%=      5-min Rain = 0
KSM2 250241Z 11013KT 23/18 A2992 RMK A01 T02340183  RH  073%=      5-min Rain = 0
KSM2 250242Z 11011KT 23/18 A2992 RMK A01 T02330184  RH  074%=      5-min Rain = 0
KSM2 250243Z 11011KT 23/18 A2992 RMK A01 T02330184  RH  074%=      5-min Rain = 0
KSM2 250244Z 11012KT 23/18 A2992 RMK A01 T02330184  RH  074%=      5-min Rain = 0
KSM2 250245Z 11014KT 23/19 A2992 RMK A01 T02330185  RH  074%=      5-min Rain = 0
KSM2 250246Z 11010KT 23/19 A2992 RMK A01 T02330185  RH  074%=      5-min Rain = 0
KSM2 250247Z 11011KT 23/19 A2992 RMK A01 T02330185  RH  074%=      5-min Rain = 0
KSM2 250248Z 12009KT 23/19 A2992 RMK A01 T02330186  RH  075%=      5-min Rain = 0
KSM2 250249Z 12011KT 23/19 A2993 RMK A01 T02330186  RH  075%=      5-min Rain = 0
KSM2 250250Z 12012KT 23/19 A2993 RMK A01 T02340186  RH  075%=      5-min Rain = 0
KSM2 250251Z 11011KT 23/19 A2993 RMK A01 T02340187  RH  075%=      5-min Rain = 0
KSM2 250252Z 12011KT 23/19 A2993 RMK A01 T02340187  RH  075%=      5-min Rain = 0
KSM2 250253Z 12009KT 23/19 A2993 RMK A01 T02340188  RH  075%=      5-min Rain = 0
KSM2 250254Z 12011KT 23/19 A2993 RMK A01 T02340188  RH  075%=      5-min Rain = 0
KSM2 250255Z 12011KT 23/19 A2993 RMK A01 T02340189  RH  076%=      5-min Rain = 0
KSM2 250256Z 12010KT 23/19 A2993 RMK A01 T02340189  RH  076%=      5-min Rain = 0
KSM2 250257Z 12011KT 23/19 A2993 RMK A01 T02340189  RH  076%=      5-min Rain = 0
KSM2 250258Z 12010KT 23/19 A2993 RMK A01 T02340190  RH  076%=      5-min Rain = 0
KSM2 250259Z 12011KT 23/19 A2993 RMK A01 T02340190  RH  076%=      5-min Rain = 0
KSM2 250300Z 12011KT 23/19 A2993 RMK A01 T02340190  RH  077%=      5-min Rain = 0
KSM2 250301Z 12012KT 23/19 A2993 RMK A01 T02330190  RH  077%=      5-min Rain = 0
KSM2 250302Z 12011KT 23/19 A2993 RMK A01 T02330191  RH  077%=      5-min Rain = 0
KSM2 250303Z 11010KT 23/19 A2993 RMK A01 T02330191  RH  077%=      5-min Rain = 0
KSM2 250304Z 11010KT 23/19 A2994 RMK A01 T02330191  RH  077%=      5-min Rain = 0
KSM2 250305Z 11011G16KT 23/19 A2994 RMK A01 T02330191  RH  077%=      5-min Rain = 0
KSM2 250306Z 11011KT 23/19 A2994 RMK A01 T02330192  RH  077%=      5-min Rain = 0
KSM2 250307Z 12012KT 23/19 A2994 RMK A01 T02330192  RH  078%=      5-min Rain = 0
KSM2 250308Z 12009KT 23/19 A2994 RMK A01 T02330192  RH  078%=      5-min Rain = 0
KSM2 250309Z 11011KT 23/19 A2994 RMK A01 T02330192  RH  078%=      5-min Rain = 0
KSM2 250310Z 12009KT 23/19 A2994 RMK A01 T02330192  RH  078%=      5-min Rain = 0
KSM2 250311Z 12008KT 23/19 A2994 RMK A01 T02330193  RH  078%=      5-min Rain = 0
KSM2 250312Z 12010KT 23/19 A2994 RMK A01 T02330193  RH  078%=      5-min Rain = 0
KSM2 250313Z 12011KT 23/19 A2994 RMK A01 T02330193  RH  078%=      5-min Rain = 0
KSM2 250314Z 12009KT 23/19 A2994 RMK A01 T02330193  RH  078%=      5-min Rain = 0
KSM2 250315Z 13010KT 23/19 A2994 RMK A01 T02330193  RH  078%=      5-min Rain = 0
KSM2 250316Z 13010KT 23/19 A2994 RMK A01 T02330194  RH  079%=      5-min Rain = 0
KSM2 250317Z 13010G15KT 23/19 A2995 RMK A01 T02330194  RH  079%=      5-min Rain = 0
KSM2 250318Z 13010KT 23/20 A2995 RMK A01 T02330195  RH  079%=      5-min Rain = 0
KSM2 250319Z 13009KT 23/19 A2995 RMK A01 T02330194  RH  079%=      5-min Rain = 0
KSM2 250320Z 13009KT 23/20 A2995 RMK A01 T02320195  RH  079%=      5-min Rain = 0
KSM2 250321Z 12009KT 23/20 A2995 RMK A01 T02320195  RH  080%=      5-min Rain = 0
KSM2 250322Z 12009KT 23/20 A2995 RMK A01 T02310195  RH  080%=      5-min Rain = 0
KSM2 250323Z 12010KT 23/20 A2995 RMK A01 T02310196  RH  080%=      5-min Rain = 0
KSM2 250324Z 12009KT 23/20 A2995 RMK A01 T02310196  RH  081%=      5-min Rain = 0
KSM2 250325Z 12009KT 23/20 A2995 RMK A01 T02300196  RH  081%=      5-min Rain = 0
KSM2 250326Z 12009G14KT 23/20 A2996 RMK A01 T02300196  RH  081%=      5-min Rain = 0
KSM2 250327Z 12009KT 23/20 A2996 RMK A01 T02300196  RH  081%=      5-min Rain = 0
KSM2 250328Z 12009KT 23/20 A2996 RMK A01 T02300197  RH  082%=      5-min Rain = 0
KSM2 250329Z 12009KT 23/20 A2996 RMK A01 T02300197  RH  082%=      5-min Rain = 0
KSM2 250330Z 13009KT 23/20 A2996 RMK A01 T02300197  RH  082%=      5-min Rain = 0
KSM2 250331Z 13010G15KT 23/20 A2996 RMK A01 T02300197  RH  082%=      5-min Rain = 0
KSM2 250332Z 13011KT 23/20 A2996 RMK A01 T02300198  RH  082%=      5-min Rain = 0
KSM2 250333Z 13010KT 23/20 A2996 RMK A01 T02300198  RH  082%=      5-min Rain = 0
KSM2 250334Z 13008KT 23/20 A2996 RMK A01 T02300198  RH  082%=      5-min Rain = 0
KSM2 250335Z 12010KT 23/20 A2996 RMK A01 T02290198  RH  082%=      5-min Rain = 0
KSM2 250336Z 13012KT 23/20 A2996 RMK A01 T02300199  RH  083%=      5-min Rain = 0
KSM2 250337Z 12010KT 23/20 A2996 RMK A01 T02300199  RH  083%=      5-min Rain = 0
KSM2 250338Z 12010KT 23/20 A2996 RMK A01 T02300199  RH  083%=      5-min Rain = 0
KSM2 250339Z 12011KT 23/20 A2996 RMK A01 T02290198  RH  083%=      5-min Rain = 0
KSM2 250340Z 13012KT 23/20 A2996 RMK A01 T02290198  RH  083%=      5-min Rain = 0
KSM2 250341Z 13010KT 23/20 A2997 RMK A01 T02290198  RH  083%=      5-min Rain = 0
KSM2 250342Z 13011KT 23/20 A2997 RMK A01 T02290198  RH  083%=      5-min Rain = 0
KSM2 250343Z 13011KT 23/20 A2997 RMK A01 T02290198  RH  082%=      5-min Rain = 0
KSM2 250344Z 13011KT 23/20 A2997 RMK A01 T02290198  RH  082%=      5-min Rain = 0
KSM2 250345Z 13009KT 23/20 A2997 RMK A01 T02290198  RH  082%=      5-min Rain = 0
KSM2 250346Z 13010KT 23/20 A2997 RMK A01 T02290198  RH  082%=      5-min Rain = 0
KSM2 250347Z 13010KT 23/20 A2997 RMK A01 T02300198  RH  082%=      5-min Rain = 0
KSM2 250348Z 13011KT 23/20 A2997 RMK A01 T02290197  RH  082%=      5-min Rain = 0
KSM2 250349Z 12008KT 23/20 A2997 RMK A01 T02300197  RH  082%=      5-min Rain = 0
KSM2 250350Z 13010G15KT 23/20 A2997 RMK A01 T02290196  RH  082%=      5-min Rain = 0
KSM2 250351Z 13010G15KT 23/20 A2997 RMK A01 T02290195  RH  081%=      5-min Rain = 0
KSM2 250352Z 13011G16KT 23/20 A2997 RMK A01 T02290195  RH  081%=      5-min Rain = 0
KSM2 250353Z 12012KT 23/19 A2997 RMK A01 T02290194  RH  080%=      5-min Rain = 0
KSM2 250354Z 12011KT 23/19 A2997 RMK A01 T02290193  RH  080%=      5-min Rain = 0
KSM2 250355Z 13011KT 23/19 A2997 RMK A01 T02290192  RH  080%=      5-min Rain = 0
KSM2 250356Z 12012KT 23/19 A2997 RMK A01 T02300192  RH  079%=      5-min Rain = 0
KSM2 250357Z 13012KT 23/19 A2998 RMK A01 T02290192  RH  079%=      5-min Rain = 0
KSM2 250358Z 13014KT 23/19 A2998 RMK A01 T02300192  RH  079%=      5-min Rain = 0
KSM2 250359Z 13013KT 23/19 A2998 RMK A01 T02300193  RH  080%=      5-min Rain = 0
KSM2 250400Z 13014KT 23/19 A2998 RMK A01 T02300193  RH  079%=      5-min Rain = 0
KSM2 250401Z 13013KT 23/19 A2998 RMK A01 T02300193  RH  080%=      5-min Rain = 0
KSM2 250402Z 13012KT 23/19 A2998 RMK A01 T02300193  RH  080%=      5-min Rain = 0
KSM2 250403Z 12013KT 23/19 A2998 RMK A01 T02300193  RH  079%=      5-min Rain = 0
KSM2 250404Z 14011KT 23/19 A2998 RMK A01 T02300193  RH  079%=      5-min Rain = 0
KSM2 250405Z 14011KT 23/19 A2998 RMK A01 T02300192  RH  079%=      5-min Rain = 0
KSM2 250406Z 14011KT 23/19 A2998 RMK A01 T02290192  RH  079%=      5-min Rain = 0
KSM2 250407Z 13011KT 23/19 A2998 RMK A01 T02290192  RH  079%=      5-min Rain = 0
KSM2 250408Z 13013KT 23/19 A2998 RMK A01 T02290192  RH  080%=      5-min Rain = 0
KSM2 250409Z 13012KT 23/19 A2998 RMK A01 T02290193  RH  080%=      5-min Rain = 0
KSM2 250410Z 12011KT 23/19 A2998 RMK A01 T02290193  RH  080%=      5-min Rain = 0
KSM2 250411Z 12010KT 23/19 A2998 RMK A01 T02280193  RH  080%=      5-min Rain = 0
KSM2 250412Z 13009KT 23/19 A2998 RMK A01 T02280194  RH  081%=      5-min Rain = 0
KSM2 250413Z 13014KT 23/19 A2998 RMK A01 T02280194  RH  081%=      5-min Rain = 0
KSM2 250414Z 13011G16KT 23/20 A2998 RMK A01 T02280195  RH  081%=      5-min Rain = 0
KSM2 250415Z 13012KT 23/20 A2998 RMK A01 T02280195  RH  081%=      5-min Rain = 0
KSM2 250416Z 13010KT 23/20 A2998 RMK A01 T02280195  RH  082%=      5-min Rain = 0
KSM2 250417Z 14008KT 23/20 A2998 RMK A01 T02280195  RH  082%=      5-min Rain = 0
KSM2 250418Z 13011KT 23/20 A2998 RMK A01 T02280195  RH  082%=      5-min Rain = 0
KSM2 250419Z 13009KT 23/20 A2998 RMK A01 T02270195  RH  082%=      5-min Rain = 0
KSM2 250420Z 13009KT 23/20 A2998 RMK A01 T02270195  RH  082%=      5-min Rain = 0
KSM2 250421Z 13010G15KT 23/20 A2998 RMK A01 T02270195  RH  082%=      5-min Rain = 0
KSM2 250422Z 13010KT 23/20 A2998 RMK A01 T02270195  RH  082%=      5-min Rain = 0
KSM2 250423Z 12010KT 23/20 A2998 RMK A01 T02270195  RH  082%=      5-min Rain = 0
KSM2 250424Z 13010KT 23/20 A2998 RMK A01 T02270196  RH  083%=      5-min Rain = 0
KSM2 250425Z 13009KT 23/20 A2998 RMK A01 T02260195  RH  083%=      5-min Rain = 0
KSM2 250426Z 13009KT 23/20 A2999 RMK A01 T02260196  RH  083%=      5-min Rain = 0
KSM2 250427Z 13011G16KT 23/20 A2999 RMK A01 T02260196  RH  083%=      5-min Rain = 0
KSM2 250428Z 12007KT 23/20 A2999 RMK A01 T02260196  RH  083%=      5-min Rain = 0
KSM2 250429Z 13010KT 23/20 A2999 RMK A01 T02260196  RH  083%=      5-min Rain = 0
KSM2 250430Z 13009KT 23/20 A2999 RMK A01 T02260196  RH  083%=      5-min Rain = 0
KSM2 250431Z 13010KT 23/20 A2999 RMK A01 T02250196  RH  083%=      5-min Rain = 0
KSM2 250432Z 13009KT 23/20 A2999 RMK A01 T02250196  RH  084%=      5-min Rain = 0
KSM2 250433Z 13010KT 23/20 A2999 RMK A01 T02250196  RH  083%=      5-min Rain = 0
KSM2 250434Z 13008KT 23/20 A2999 RMK A01 T02250196  RH  083%=      5-min Rain = 0
KSM2 250435Z 13011KT 23/20 A2999 RMK A01 T02250195  RH  083%=      5-min Rain = 0
KSM2 250436Z 13010KT 23/19 A2999 RMK A01 T02250194  RH  083%=      5-min Rain = 0
KSM2 250437Z 13011KT 23/19 A2999 RMK A01 T02250194  RH  083%=      5-min Rain = 0
KSM2 250438Z 13011KT 23/19 A2999 RMK A01 T02250193  RH  082%=      5-min Rain = 0
KSM2 250439Z 13010KT 23/19 A2999 RMK A01 T02250193  RH  082%=      5-min Rain = 0
KSM2 250440Z 14008G13KT 23/19 A2999 RMK A01 T02250192  RH  082%=      5-min Rain = 0
KSM2 250441Z 14010KT 23/19 A2999 RMK A01 T02250192  RH  081%=      5-min Rain = 0
KSM2 250442Z 14009KT 23/19 A2999 RMK A01 T02250191  RH  081%=      5-min Rain = 0
KSM2 250443Z 14012KT 23/19 A2999 RMK A01 T02250191  RH  081%=      5-min Rain = 0
KSM2 250444Z 14010KT 23/19 A2999 RMK A01 T02250190  RH  081%=      5-min Rain = 0
KSM2 250445Z 13011KT 23/19 A2999 RMK A01 T02250190  RH  080%=      5-min Rain = 0
KSM2 250446Z 14010KT 23/19 A2999 RMK A01 T02250190  RH  080%=      5-min Rain = 0
KSM2 250447Z 14012KT 23/19 A2999 RMK A01 T02250189  RH  080%=      5-min Rain = 0
KSM2 250448Z 14011G16KT 23/19 A2999 RMK A01 T02250189  RH  080%=      5-min Rain = 0
KSM2 250449Z 14013KT 23/19 A2998 RMK A01 T02250189  RH  080%=      5-min Rain = 0
KSM2 250450Z 14012KT 23/19 A2999 RMK A01 T02250188  RH  080%=      5-min Rain = 0
KSM2 250451Z 14011KT 23/19 A2999 RMK A01 T02250189  RH  080%=      5-min Rain = 0
KSM2 250452Z 14009KT 23/19 A2998 RMK A01 T02250188  RH  080%=      5-min Rain = 0
KSM2 250453Z 14010KT 23/19 A2998 RMK A01 T02250188  RH  080%=      5-min Rain = 0
KSM2 250454Z 13010KT 22/19 A2998 RMK A01 T02240187  RH  080%=      5-min Rain = 0
KSM2 250455Z 14011KT 22/19 A2999 RMK A01 T02240187  RH  080%=      5-min Rain = 0
KSM2 250456Z 13009KT 22/19 A2999 RMK A01 T02240187  RH  080%=      5-min Rain = 0
KSM2 250457Z 14008KT 22/19 A2999 RMK A01 T02240187  RH  080%=      5-min Rain = 0
KSM2 250458Z 13008KT 22/19 A2999 RMK A01 T02230187  RH  080%=      5-min Rain = 0
KSM2 250459Z 14008G13KT 22/19 A2999 RMK A01 T02230187  RH  080%=      5-min Rain = 0

Page generated in 0.1216 seconds.